<?xml version="1.0" encoding="UTF-8" standalone="no" ?>
<gpx xmlns="http://www.topografix.com/GPX/1/1" xmlns:xsi="http://www.w3.org/2001/XMLSchema-instance" xsi:schemaLocation="http://www.topografix.com/GPX/1/1 http://www.topografix.com/GPX/1/1/gpx.xsd" version="1.1" creator="VisuGPX - https://www.visugpx.com">
  <metadata>
    <name>Sainte Victoire </name>
    <desc><![CDATA[grp_trc:[nouvelles]]]></desc>
  </metadata>
  <trk>
    <name><![CDATA[30 juil. 2022 à 09:31:45]]></name>
    <cmt><![CDATA[30 juil. 2022 à 09:31:45]]></cmt>
    <trkseg>
      <trkpt lat="45.36555" lon="5.83399">
        <ele>1145</ele>
        <time>2022-07-30T07:31:46Z</time>
      </trkpt>
      <trkpt lat="45.36559" lon="5.83403">
        <ele>1145</ele>
        <time>2022-07-30T07:32:22Z</time>
      </trkpt>
      <trkpt lat="45.36564" lon="5.834">
        <ele>1144</ele>
        <time>2022-07-30T07:32:32Z</time>
      </trkpt>
      <trkpt lat="45.36572" lon="5.83393">
        <ele>1145</ele>
        <time>2022-07-30T07:32:47Z</time>
      </trkpt>
      <trkpt lat="45.36577" lon="5.83387">
        <ele>1139</ele>
        <time>2022-07-30T07:33:02Z</time>
      </trkpt>
      <trkpt lat="45.3658" lon="5.83383">
        <ele>1139</ele>
        <time>2022-07-30T07:33:06Z</time>
      </trkpt>
      <trkpt lat="45.36584" lon="5.83387">
        <ele>1140</ele>
        <time>2022-07-30T07:33:43Z</time>
      </trkpt>
      <trkpt lat="45.36588" lon="5.83385">
        <ele>1140</ele>
        <time>2022-07-30T07:33:49Z</time>
      </trkpt>
      <trkpt lat="45.36593" lon="5.83386">
        <ele>1141</ele>
        <time>2022-07-30T07:33:56Z</time>
      </trkpt>
      <trkpt lat="45.36604" lon="5.83382">
        <ele>1141</ele>
        <time>2022-07-30T07:34:08Z</time>
      </trkpt>
      <trkpt lat="45.36609" lon="5.83381">
        <ele>1142</ele>
        <time>2022-07-30T07:34:22Z</time>
      </trkpt>
      <trkpt lat="45.36619" lon="5.83372">
        <ele>1144</ele>
        <time>2022-07-30T07:34:38Z</time>
      </trkpt>
      <trkpt lat="45.36621" lon="5.83375">
        <ele>1145</ele>
        <time>2022-07-30T07:35:23Z</time>
      </trkpt>
      <trkpt lat="45.36625" lon="5.83381">
        <ele>1144</ele>
        <time>2022-07-30T07:35:28Z</time>
      </trkpt>
      <trkpt lat="45.3663" lon="5.83389">
        <ele>1143</ele>
        <time>2022-07-30T07:35:36Z</time>
      </trkpt>
      <trkpt lat="45.36635" lon="5.83392">
        <ele>1141</ele>
        <time>2022-07-30T07:35:40Z</time>
      </trkpt>
      <trkpt lat="45.36639" lon="5.8339">
        <ele>1140</ele>
        <time>2022-07-30T07:35:44Z</time>
      </trkpt>
      <trkpt lat="45.36642" lon="5.83384">
        <ele>1141</ele>
        <time>2022-07-30T07:35:53Z</time>
      </trkpt>
      <trkpt lat="45.36641" lon="5.83385">
        <ele>1142</ele>
        <time>2022-07-30T07:36:27Z</time>
      </trkpt>
      <trkpt lat="45.36638" lon="5.8339">
        <ele>1142</ele>
        <time>2022-07-30T07:36:32Z</time>
      </trkpt>
      <trkpt lat="45.36633" lon="5.83385">
        <ele>1141</ele>
        <time>2022-07-30T07:36:42Z</time>
      </trkpt>
      <trkpt lat="45.36626" lon="5.83373">
        <ele>1144</ele>
        <time>2022-07-30T07:36:57Z</time>
      </trkpt>
      <trkpt lat="45.36623" lon="5.83366">
        <ele>1146</ele>
        <time>2022-07-30T07:37:06Z</time>
      </trkpt>
      <trkpt lat="45.36625" lon="5.83358">
        <ele>1147</ele>
        <time>2022-07-30T07:37:16Z</time>
      </trkpt>
      <trkpt lat="45.36628" lon="5.83349">
        <ele>1147</ele>
        <time>2022-07-30T07:37:26Z</time>
      </trkpt>
      <trkpt lat="45.36629" lon="5.83332">
        <ele>1148</ele>
        <time>2022-07-30T07:37:42Z</time>
      </trkpt>
      <trkpt lat="45.36631" lon="5.83327">
        <ele>1149</ele>
        <time>2022-07-30T07:37:52Z</time>
      </trkpt>
      <trkpt lat="45.36635" lon="5.83322">
        <ele>1150</ele>
        <time>2022-07-30T07:38:02Z</time>
      </trkpt>
      <trkpt lat="45.36642" lon="5.83322">
        <ele>1151</ele>
        <time>2022-07-30T07:38:13Z</time>
      </trkpt>
      <trkpt lat="45.36647" lon="5.83326">
        <ele>1152</ele>
        <time>2022-07-30T07:38:23Z</time>
      </trkpt>
      <trkpt lat="45.36658" lon="5.83328">
        <ele>1154</ele>
        <time>2022-07-30T07:38:43Z</time>
      </trkpt>
      <trkpt lat="45.36676" lon="5.8334">
        <ele>1156</ele>
        <time>2022-07-30T07:39:13Z</time>
      </trkpt>
      <trkpt lat="45.36671" lon="5.83332">
        <ele>1157</ele>
        <time>2022-07-30T07:39:37Z</time>
      </trkpt>
      <trkpt lat="45.36665" lon="5.83327">
        <ele>1156</ele>
        <time>2022-07-30T07:39:43Z</time>
      </trkpt>
      <trkpt lat="45.36651" lon="5.83323">
        <ele>1154</ele>
        <time>2022-07-30T07:39:56Z</time>
      </trkpt>
      <trkpt lat="45.36635" lon="5.83317">
        <ele>1152</ele>
        <time>2022-07-30T07:40:10Z</time>
      </trkpt>
      <trkpt lat="45.36622" lon="5.8332">
        <ele>1151</ele>
        <time>2022-07-30T07:40:23Z</time>
      </trkpt>
      <trkpt lat="45.36621" lon="5.83314">
        <ele>1151</ele>
        <time>2022-07-30T07:40:29Z</time>
      </trkpt>
      <trkpt lat="45.36616" lon="5.83308">
        <ele>1151</ele>
        <time>2022-07-30T07:40:39Z</time>
      </trkpt>
      <trkpt lat="45.36614" lon="5.83303">
        <ele>1152</ele>
        <time>2022-07-30T07:40:44Z</time>
      </trkpt>
      <trkpt lat="45.3661" lon="5.83306">
        <ele>1153</ele>
        <time>2022-07-30T07:40:56Z</time>
      </trkpt>
      <trkpt lat="45.36609" lon="5.83299">
        <ele>1153</ele>
        <time>2022-07-30T07:41:01Z</time>
      </trkpt>
      <trkpt lat="45.36594" lon="5.83285">
        <ele>1156</ele>
        <time>2022-07-30T07:41:26Z</time>
      </trkpt>
      <trkpt lat="45.3659" lon="5.83281">
        <ele>1158</ele>
        <time>2022-07-30T07:41:44Z</time>
      </trkpt>
      <trkpt lat="45.36581" lon="5.83268">
        <ele>1160</ele>
        <time>2022-07-30T07:42:05Z</time>
      </trkpt>
      <trkpt lat="45.3658" lon="5.83258">
        <ele>1161</ele>
        <time>2022-07-30T07:42:15Z</time>
      </trkpt>
      <trkpt lat="45.36575" lon="5.83254">
        <ele>1162</ele>
        <time>2022-07-30T07:42:24Z</time>
      </trkpt>
      <trkpt lat="45.36568" lon="5.83248">
        <ele>1162</ele>
        <time>2022-07-30T07:42:32Z</time>
      </trkpt>
      <trkpt lat="45.36565" lon="5.83247">
        <ele>1163</ele>
        <time>2022-07-30T07:42:36Z</time>
      </trkpt>
      <trkpt lat="45.36563" lon="5.8324">
        <ele>1164</ele>
        <time>2022-07-30T07:42:41Z</time>
      </trkpt>
      <trkpt lat="45.36558" lon="5.83234">
        <ele>1165</ele>
        <time>2022-07-30T07:42:48Z</time>
      </trkpt>
      <trkpt lat="45.36555" lon="5.83227">
        <ele>1166</ele>
        <time>2022-07-30T07:42:58Z</time>
      </trkpt>
      <trkpt lat="45.36551" lon="5.83227">
        <ele>1167</ele>
        <time>2022-07-30T07:43:03Z</time>
      </trkpt>
      <trkpt lat="45.36546" lon="5.83218">
        <ele>1168</ele>
        <time>2022-07-30T07:43:13Z</time>
      </trkpt>
      <trkpt lat="45.36548" lon="5.83202">
        <ele>1170</ele>
        <time>2022-07-30T07:43:26Z</time>
      </trkpt>
      <trkpt lat="45.36546" lon="5.83191">
        <ele>1171</ele>
        <time>2022-07-30T07:43:39Z</time>
      </trkpt>
      <trkpt lat="45.36545" lon="5.83185">
        <ele>1172</ele>
        <time>2022-07-30T07:43:43Z</time>
      </trkpt>
      <trkpt lat="45.36539" lon="5.83175">
        <ele>1173</ele>
        <time>2022-07-30T07:43:55Z</time>
      </trkpt>
      <trkpt lat="45.36543" lon="5.83169">
        <ele>1174</ele>
        <time>2022-07-30T07:44:01Z</time>
      </trkpt>
      <trkpt lat="45.3654" lon="5.83158">
        <ele>1176</ele>
        <time>2022-07-30T07:44:13Z</time>
      </trkpt>
      <trkpt lat="45.36535" lon="5.83156">
        <ele>1177</ele>
        <time>2022-07-30T07:44:24Z</time>
      </trkpt>
      <trkpt lat="45.36537" lon="5.83148">
        <ele>1178</ele>
        <time>2022-07-30T07:44:28Z</time>
      </trkpt>
      <trkpt lat="45.36536" lon="5.83143">
        <ele>1179</ele>
        <time>2022-07-30T07:44:36Z</time>
      </trkpt>
      <trkpt lat="45.36534" lon="5.83136">
        <ele>1180</ele>
        <time>2022-07-30T07:44:41Z</time>
      </trkpt>
      <trkpt lat="45.36531" lon="5.83129">
        <ele>1181</ele>
        <time>2022-07-30T07:44:53Z</time>
      </trkpt>
      <trkpt lat="45.3653" lon="5.83119">
        <ele>1183</ele>
        <time>2022-07-30T07:45:04Z</time>
      </trkpt>
      <trkpt lat="45.36525" lon="5.8312">
        <ele>1184</ele>
        <time>2022-07-30T07:45:08Z</time>
      </trkpt>
      <trkpt lat="45.36524" lon="5.83104">
        <ele>1187</ele>
        <time>2022-07-30T07:45:31Z</time>
      </trkpt>
      <trkpt lat="45.36522" lon="5.83097">
        <ele>1189</ele>
        <time>2022-07-30T07:45:41Z</time>
      </trkpt>
      <trkpt lat="45.36517" lon="5.83098">
        <ele>1189</ele>
        <time>2022-07-30T07:45:46Z</time>
      </trkpt>
      <trkpt lat="45.36517" lon="5.83088">
        <ele>1191</ele>
        <time>2022-07-30T07:45:57Z</time>
      </trkpt>
      <trkpt lat="45.36513" lon="5.83081">
        <ele>1193</ele>
        <time>2022-07-30T07:46:12Z</time>
      </trkpt>
      <trkpt lat="45.3651" lon="5.83075">
        <ele>1194</ele>
        <time>2022-07-30T07:46:22Z</time>
      </trkpt>
      <trkpt lat="45.3651" lon="5.83069">
        <ele>1196</ele>
        <time>2022-07-30T07:46:32Z</time>
      </trkpt>
      <trkpt lat="45.36502" lon="5.83055">
        <ele>1199</ele>
        <time>2022-07-30T07:46:51Z</time>
      </trkpt>
      <trkpt lat="45.365" lon="5.83047">
        <ele>1201</ele>
        <time>2022-07-30T07:47:03Z</time>
      </trkpt>
      <trkpt lat="45.36503" lon="5.83038">
        <ele>1202</ele>
        <time>2022-07-30T07:47:10Z</time>
      </trkpt>
      <trkpt lat="45.36499" lon="5.83033">
        <ele>1203</ele>
        <time>2022-07-30T07:47:17Z</time>
      </trkpt>
      <trkpt lat="45.365" lon="5.83028">
        <ele>1204</ele>
        <time>2022-07-30T07:47:24Z</time>
      </trkpt>
      <trkpt lat="45.365" lon="5.8302">
        <ele>1206</ele>
        <time>2022-07-30T07:47:34Z</time>
      </trkpt>
      <trkpt lat="45.36497" lon="5.83013">
        <ele>1207</ele>
        <time>2022-07-30T07:47:44Z</time>
      </trkpt>
      <trkpt lat="45.36494" lon="5.83008">
        <ele>1208</ele>
        <time>2022-07-30T07:47:48Z</time>
      </trkpt>
      <trkpt lat="45.36493" lon="5.83002">
        <ele>1210</ele>
        <time>2022-07-30T07:48:01Z</time>
      </trkpt>
      <trkpt lat="45.36489" lon="5.82997">
        <ele>1210</ele>
        <time>2022-07-30T07:48:04Z</time>
      </trkpt>
      <trkpt lat="45.36492" lon="5.8299">
        <ele>1211</ele>
        <time>2022-07-30T07:48:17Z</time>
      </trkpt>
      <trkpt lat="45.3649" lon="5.82983">
        <ele>1212</ele>
        <time>2022-07-30T07:48:22Z</time>
      </trkpt>
      <trkpt lat="45.36489" lon="5.82978">
        <ele>1212</ele>
        <time>2022-07-30T07:48:29Z</time>
      </trkpt>
      <trkpt lat="45.36493" lon="5.82975">
        <ele>1213</ele>
        <time>2022-07-30T07:48:40Z</time>
      </trkpt>
      <trkpt lat="45.36493" lon="5.82969">
        <ele>1213</ele>
        <time>2022-07-30T07:48:45Z</time>
      </trkpt>
      <trkpt lat="45.36491" lon="5.82963">
        <ele>1214</ele>
        <time>2022-07-30T07:48:52Z</time>
      </trkpt>
      <trkpt lat="45.36487" lon="5.82958">
        <ele>1214</ele>
        <time>2022-07-30T07:48:56Z</time>
      </trkpt>
      <trkpt lat="45.36486" lon="5.82951">
        <ele>1215</ele>
        <time>2022-07-30T07:49:03Z</time>
      </trkpt>
      <trkpt lat="45.36485" lon="5.82942">
        <ele>1217</ele>
        <time>2022-07-30T07:49:18Z</time>
      </trkpt>
      <trkpt lat="45.36484" lon="5.82933">
        <ele>1219</ele>
        <time>2022-07-30T07:49:33Z</time>
      </trkpt>
      <trkpt lat="45.36479" lon="5.82929">
        <ele>1220</ele>
        <time>2022-07-30T07:49:53Z</time>
      </trkpt>
      <trkpt lat="45.36478" lon="5.82926">
        <ele>1220</ele>
        <time>2022-07-30T07:50:59Z</time>
      </trkpt>
      <trkpt lat="45.36478" lon="5.8292">
        <ele>1221</ele>
        <time>2022-07-30T07:51:05Z</time>
      </trkpt>
      <trkpt lat="45.36476" lon="5.82915">
        <ele>1222</ele>
        <time>2022-07-30T07:51:09Z</time>
      </trkpt>
      <trkpt lat="45.36462" lon="5.82901">
        <ele>1222</ele>
        <time>2022-07-30T07:51:23Z</time>
      </trkpt>
      <trkpt lat="45.3645" lon="5.82893">
        <ele>1222</ele>
        <time>2022-07-30T07:51:35Z</time>
      </trkpt>
      <trkpt lat="45.36429" lon="5.8288">
        <ele>1222</ele>
        <time>2022-07-30T07:52:08Z</time>
      </trkpt>
      <trkpt lat="45.36426" lon="5.82879">
        <ele>1222</ele>
        <time>2022-07-30T07:52:11Z</time>
      </trkpt>
      <trkpt lat="45.36422" lon="5.8287">
        <ele>1222</ele>
        <time>2022-07-30T07:52:27Z</time>
      </trkpt>
      <trkpt lat="45.36419" lon="5.82864">
        <ele>1223</ele>
        <time>2022-07-30T07:52:37Z</time>
      </trkpt>
      <trkpt lat="45.36418" lon="5.82858">
        <ele>1224</ele>
        <time>2022-07-30T07:52:48Z</time>
      </trkpt>
      <trkpt lat="45.36417" lon="5.82848">
        <ele>1225</ele>
        <time>2022-07-30T07:53:00Z</time>
      </trkpt>
      <trkpt lat="45.36414" lon="5.82842">
        <ele>1225</ele>
        <time>2022-07-30T07:53:06Z</time>
      </trkpt>
      <trkpt lat="45.36413" lon="5.82836">
        <ele>1225</ele>
        <time>2022-07-30T07:53:22Z</time>
      </trkpt>
      <trkpt lat="45.36414" lon="5.82829">
        <ele>1224</ele>
        <time>2022-07-30T07:53:28Z</time>
      </trkpt>
      <trkpt lat="45.36416" lon="5.82824">
        <ele>1223</ele>
        <time>2022-07-30T07:53:32Z</time>
      </trkpt>
      <trkpt lat="45.36418" lon="5.82817">
        <ele>1223</ele>
        <time>2022-07-30T07:53:36Z</time>
      </trkpt>
      <trkpt lat="45.36418" lon="5.82811">
        <ele>1222</ele>
        <time>2022-07-30T07:53:43Z</time>
      </trkpt>
      <trkpt lat="45.36422" lon="5.82801">
        <ele>1224</ele>
        <time>2022-07-30T07:53:53Z</time>
      </trkpt>
      <trkpt lat="45.36423" lon="5.82794">
        <ele>1223</ele>
        <time>2022-07-30T07:54:00Z</time>
      </trkpt>
      <trkpt lat="45.36426" lon="5.82786">
        <ele>1222</ele>
        <time>2022-07-30T07:54:10Z</time>
      </trkpt>
      <trkpt lat="45.36427" lon="5.82777">
        <ele>1222</ele>
        <time>2022-07-30T07:54:16Z</time>
      </trkpt>
      <trkpt lat="45.36426" lon="5.82771">
        <ele>1222</ele>
        <time>2022-07-30T07:54:21Z</time>
      </trkpt>
      <trkpt lat="45.3642" lon="5.82768">
        <ele>1222</ele>
        <time>2022-07-30T07:54:44Z</time>
      </trkpt>
      <trkpt lat="45.36432" lon="5.82758">
        <ele>1224</ele>
        <time>2022-07-30T07:55:05Z</time>
      </trkpt>
      <trkpt lat="45.36434" lon="5.82749">
        <ele>1224</ele>
        <time>2022-07-30T07:55:11Z</time>
      </trkpt>
      <trkpt lat="45.36432" lon="5.82737">
        <ele>1225</ele>
        <time>2022-07-30T07:55:18Z</time>
      </trkpt>
      <trkpt lat="45.36433" lon="5.82729">
        <ele>1225</ele>
        <time>2022-07-30T07:55:26Z</time>
      </trkpt>
      <trkpt lat="45.36439" lon="5.82727">
        <ele>1226</ele>
        <time>2022-07-30T07:55:36Z</time>
      </trkpt>
      <trkpt lat="45.36443" lon="5.82694">
        <ele>1227</ele>
        <time>2022-07-30T07:56:05Z</time>
      </trkpt>
      <trkpt lat="45.36444" lon="5.82686">
        <ele>1227</ele>
        <time>2022-07-30T07:56:12Z</time>
      </trkpt>
      <trkpt lat="45.36443" lon="5.82678">
        <ele>1226</ele>
        <time>2022-07-30T07:56:19Z</time>
      </trkpt>
      <trkpt lat="45.36447" lon="5.82673">
        <ele>1227</ele>
        <time>2022-07-30T07:56:26Z</time>
      </trkpt>
      <trkpt lat="45.3645" lon="5.82669">
        <ele>1228</ele>
        <time>2022-07-30T07:56:36Z</time>
      </trkpt>
      <trkpt lat="45.36454" lon="5.82658">
        <ele>1228</ele>
        <time>2022-07-30T07:56:46Z</time>
      </trkpt>
      <trkpt lat="45.36465" lon="5.82635">
        <ele>1227</ele>
        <time>2022-07-30T07:57:09Z</time>
      </trkpt>
      <trkpt lat="45.3647" lon="5.8263">
        <ele>1227</ele>
        <time>2022-07-30T07:57:20Z</time>
      </trkpt>
      <trkpt lat="45.36473" lon="5.82624">
        <ele>1227</ele>
        <time>2022-07-30T07:57:25Z</time>
      </trkpt>
      <trkpt lat="45.36475" lon="5.82613">
        <ele>1227</ele>
        <time>2022-07-30T07:57:31Z</time>
      </trkpt>
      <trkpt lat="45.36473" lon="5.82607">
        <ele>1227</ele>
        <time>2022-07-30T07:57:34Z</time>
      </trkpt>
      <trkpt lat="45.36473" lon="5.82598">
        <ele>1228</ele>
        <time>2022-07-30T07:57:43Z</time>
      </trkpt>
      <trkpt lat="45.36468" lon="5.82593">
        <ele>1227</ele>
        <time>2022-07-30T07:57:54Z</time>
      </trkpt>
      <trkpt lat="45.3647" lon="5.82587">
        <ele>1225</ele>
        <time>2022-07-30T07:59:25Z</time>
      </trkpt>
      <trkpt lat="45.3647" lon="5.8258">
        <ele>1225</ele>
        <time>2022-07-30T07:59:29Z</time>
      </trkpt>
      <trkpt lat="45.36473" lon="5.82574">
        <ele>1225</ele>
        <time>2022-07-30T07:59:37Z</time>
      </trkpt>
      <trkpt lat="45.36476" lon="5.82569">
        <ele>1225</ele>
        <time>2022-07-30T07:59:47Z</time>
      </trkpt>
      <trkpt lat="45.36482" lon="5.82564">
        <ele>1226</ele>
        <time>2022-07-30T07:59:59Z</time>
      </trkpt>
      <trkpt lat="45.3648" lon="5.82557">
        <ele>1226</ele>
        <time>2022-07-30T08:00:03Z</time>
      </trkpt>
      <trkpt lat="45.3648" lon="5.82551">
        <ele>1227</ele>
        <time>2022-07-30T08:00:08Z</time>
      </trkpt>
      <trkpt lat="45.36474" lon="5.82548">
        <ele>1227</ele>
        <time>2022-07-30T08:00:24Z</time>
      </trkpt>
      <trkpt lat="45.36467" lon="5.82543">
        <ele>1228</ele>
        <time>2022-07-30T08:01:20Z</time>
      </trkpt>
      <trkpt lat="45.36464" lon="5.82544">
        <ele>1228</ele>
        <time>2022-07-30T08:02:07Z</time>
      </trkpt>
      <trkpt lat="45.36459" lon="5.82542">
        <ele>1228</ele>
        <time>2022-07-30T08:02:19Z</time>
      </trkpt>
      <trkpt lat="45.36451" lon="5.82542">
        <ele>1230</ele>
        <time>2022-07-30T08:02:34Z</time>
      </trkpt>
      <trkpt lat="45.36443" lon="5.82546">
        <ele>1229</ele>
        <time>2022-07-30T08:02:43Z</time>
      </trkpt>
      <trkpt lat="45.36439" lon="5.82543">
        <ele>1229</ele>
        <time>2022-07-30T08:02:50Z</time>
      </trkpt>
      <trkpt lat="45.36431" lon="5.82543">
        <ele>1230</ele>
        <time>2022-07-30T08:03:09Z</time>
      </trkpt>
      <trkpt lat="45.36425" lon="5.82542">
        <ele>1230</ele>
        <time>2022-07-30T08:03:18Z</time>
      </trkpt>
      <trkpt lat="45.36422" lon="5.82537">
        <ele>1230</ele>
        <time>2022-07-30T08:03:30Z</time>
      </trkpt>
      <trkpt lat="45.36417" lon="5.82536">
        <ele>1230</ele>
        <time>2022-07-30T08:03:36Z</time>
      </trkpt>
      <trkpt lat="45.36416" lon="5.82529">
        <ele>1230</ele>
        <time>2022-07-30T08:03:56Z</time>
      </trkpt>
      <trkpt lat="45.36416" lon="5.82522">
        <ele>1230</ele>
        <time>2022-07-30T08:04:06Z</time>
      </trkpt>
      <trkpt lat="45.36413" lon="5.82516">
        <ele>1229</ele>
        <time>2022-07-30T08:04:16Z</time>
      </trkpt>
      <trkpt lat="45.36407" lon="5.82511">
        <ele>1227</ele>
        <time>2022-07-30T08:04:25Z</time>
      </trkpt>
      <trkpt lat="45.36403" lon="5.82508">
        <ele>1227</ele>
        <time>2022-07-30T08:04:47Z</time>
      </trkpt>
      <trkpt lat="45.36399" lon="5.82507">
        <ele>1226</ele>
        <time>2022-07-30T08:04:51Z</time>
      </trkpt>
      <trkpt lat="45.36395" lon="5.82502">
        <ele>1225</ele>
        <time>2022-07-30T08:05:04Z</time>
      </trkpt>
      <trkpt lat="45.36387" lon="5.82497">
        <ele>1227</ele>
        <time>2022-07-30T08:05:19Z</time>
      </trkpt>
      <trkpt lat="45.36378" lon="5.82488">
        <ele>1229</ele>
        <time>2022-07-30T08:05:37Z</time>
      </trkpt>
      <trkpt lat="45.3637" lon="5.82484">
        <ele>1229</ele>
        <time>2022-07-30T08:05:47Z</time>
      </trkpt>
      <trkpt lat="45.36356" lon="5.82466">
        <ele>1231</ele>
        <time>2022-07-30T08:06:16Z</time>
      </trkpt>
      <trkpt lat="45.36348" lon="5.8246">
        <ele>1233</ele>
        <time>2022-07-30T08:06:53Z</time>
      </trkpt>
      <trkpt lat="45.36346" lon="5.82467">
        <ele>1235</ele>
        <time>2022-07-30T08:07:14Z</time>
      </trkpt>
      <trkpt lat="45.36354" lon="5.82465">
        <ele>1236</ele>
        <time>2022-07-30T08:07:29Z</time>
      </trkpt>
      <trkpt lat="45.36358" lon="5.82465">
        <ele>1236</ele>
        <time>2022-07-30T08:07:35Z</time>
      </trkpt>
      <trkpt lat="45.36363" lon="5.82467">
        <ele>1236</ele>
        <time>2022-07-30T08:07:42Z</time>
      </trkpt>
      <trkpt lat="45.36362" lon="5.82457">
        <ele>1238</ele>
        <time>2022-07-30T08:07:57Z</time>
      </trkpt>
      <trkpt lat="45.36358" lon="5.8245">
        <ele>1239</ele>
        <time>2022-07-30T08:08:07Z</time>
      </trkpt>
      <trkpt lat="45.36359" lon="5.82449">
        <ele>1241</ele>
        <time>2022-07-30T08:08:29Z</time>
      </trkpt>
      <trkpt lat="45.36376" lon="5.82453">
        <ele>1244</ele>
        <time>2022-07-30T08:08:59Z</time>
      </trkpt>
      <trkpt lat="45.3638" lon="5.82456">
        <ele>1245</ele>
        <time>2022-07-30T08:09:04Z</time>
      </trkpt>
      <trkpt lat="45.36396" lon="5.82456">
        <ele>1247</ele>
        <time>2022-07-30T08:09:24Z</time>
      </trkpt>
      <trkpt lat="45.36406" lon="5.82452">
        <ele>1248</ele>
        <time>2022-07-30T08:09:38Z</time>
      </trkpt>
      <trkpt lat="45.36411" lon="5.82452">
        <ele>1249</ele>
        <time>2022-07-30T08:09:44Z</time>
      </trkpt>
      <trkpt lat="45.36416" lon="5.8245">
        <ele>1249</ele>
        <time>2022-07-30T08:09:50Z</time>
      </trkpt>
      <trkpt lat="45.36419" lon="5.82453">
        <ele>1250</ele>
        <time>2022-07-30T08:09:56Z</time>
      </trkpt>
      <trkpt lat="45.36427" lon="5.82455">
        <ele>1251</ele>
        <time>2022-07-30T08:10:07Z</time>
      </trkpt>
      <trkpt lat="45.36439" lon="5.8245">
        <ele>1253</ele>
        <time>2022-07-30T08:10:24Z</time>
      </trkpt>
      <trkpt lat="45.36445" lon="5.82452">
        <ele>1254</ele>
        <time>2022-07-30T08:10:34Z</time>
      </trkpt>
      <trkpt lat="45.36448" lon="5.82447">
        <ele>1255</ele>
        <time>2022-07-30T08:10:38Z</time>
      </trkpt>
      <trkpt lat="45.36446" lon="5.82441">
        <ele>1255</ele>
        <time>2022-07-30T08:10:43Z</time>
      </trkpt>
      <trkpt lat="45.36437" lon="5.82434">
        <ele>1257</ele>
        <time>2022-07-30T08:10:58Z</time>
      </trkpt>
      <trkpt lat="45.36434" lon="5.8243">
        <ele>1258</ele>
        <time>2022-07-30T08:11:18Z</time>
      </trkpt>
      <trkpt lat="45.36427" lon="5.82425">
        <ele>1258</ele>
        <time>2022-07-30T08:11:47Z</time>
      </trkpt>
      <trkpt lat="45.36421" lon="5.8242">
        <ele>1258</ele>
        <time>2022-07-30T08:12:00Z</time>
      </trkpt>
      <trkpt lat="45.36418" lon="5.82415">
        <ele>1259</ele>
        <time>2022-07-30T08:12:08Z</time>
      </trkpt>
      <trkpt lat="45.36405" lon="5.82412">
        <ele>1261</ele>
        <time>2022-07-30T08:12:34Z</time>
      </trkpt>
      <trkpt lat="45.36394" lon="5.82406">
        <ele>1263</ele>
        <time>2022-07-30T08:12:56Z</time>
      </trkpt>
      <trkpt lat="45.36388" lon="5.82404">
        <ele>1263</ele>
        <time>2022-07-30T08:13:06Z</time>
      </trkpt>
      <trkpt lat="45.36372" lon="5.82388">
        <ele>1266</ele>
        <time>2022-07-30T08:13:46Z</time>
      </trkpt>
      <trkpt lat="45.36373" lon="5.82388">
        <ele>1267</ele>
        <time>2022-07-30T08:15:20Z</time>
      </trkpt>
      <trkpt lat="45.36384" lon="5.82392">
        <ele>1269</ele>
        <time>2022-07-30T08:15:40Z</time>
      </trkpt>
      <trkpt lat="45.364" lon="5.8239">
        <ele>1272</ele>
        <time>2022-07-30T08:16:12Z</time>
      </trkpt>
      <trkpt lat="45.36405" lon="5.8239">
        <ele>1273</ele>
        <time>2022-07-30T08:16:22Z</time>
      </trkpt>
      <trkpt lat="45.36415" lon="5.82384">
        <ele>1274</ele>
        <time>2022-07-30T08:16:52Z</time>
      </trkpt>
      <trkpt lat="45.36421" lon="5.82382">
        <ele>1275</ele>
        <time>2022-07-30T08:17:07Z</time>
      </trkpt>
      <trkpt lat="45.36426" lon="5.82382">
        <ele>1275</ele>
        <time>2022-07-30T08:17:17Z</time>
      </trkpt>
      <trkpt lat="45.36438" lon="5.82385">
        <ele>1278</ele>
        <time>2022-07-30T08:17:52Z</time>
      </trkpt>
      <trkpt lat="45.36439" lon="5.82376">
        <ele>1279</ele>
        <time>2022-07-30T08:18:01Z</time>
      </trkpt>
      <trkpt lat="45.36431" lon="5.82366">
        <ele>1279</ele>
        <time>2022-07-30T08:18:13Z</time>
      </trkpt>
      <trkpt lat="45.36427" lon="5.82363">
        <ele>1279</ele>
        <time>2022-07-30T08:18:17Z</time>
      </trkpt>
      <trkpt lat="45.3642" lon="5.82358">
        <ele>1281</ele>
        <time>2022-07-30T08:18:32Z</time>
      </trkpt>
      <trkpt lat="45.36416" lon="5.82359">
        <ele>1281</ele>
        <time>2022-07-30T08:18:37Z</time>
      </trkpt>
      <trkpt lat="45.36411" lon="5.82361">
        <ele>1281</ele>
        <time>2022-07-30T08:18:42Z</time>
      </trkpt>
      <trkpt lat="45.36406" lon="5.8236">
        <ele>1282</ele>
        <time>2022-07-30T08:18:47Z</time>
      </trkpt>
      <trkpt lat="45.36399" lon="5.8236">
        <ele>1283</ele>
        <time>2022-07-30T08:18:59Z</time>
      </trkpt>
      <trkpt lat="45.36395" lon="5.82356">
        <ele>1283</ele>
        <time>2022-07-30T08:19:09Z</time>
      </trkpt>
      <trkpt lat="45.3639" lon="5.82351">
        <ele>1284</ele>
        <time>2022-07-30T08:19:19Z</time>
      </trkpt>
      <trkpt lat="45.36392" lon="5.82352">
        <ele>1286</ele>
        <time>2022-07-30T08:19:51Z</time>
      </trkpt>
      <trkpt lat="45.36396" lon="5.82354">
        <ele>1287</ele>
        <time>2022-07-30T08:19:57Z</time>
      </trkpt>
      <trkpt lat="45.36401" lon="5.82352">
        <ele>1288</ele>
        <time>2022-07-30T08:20:07Z</time>
      </trkpt>
      <trkpt lat="45.3642" lon="5.82344">
        <ele>1290</ele>
        <time>2022-07-30T08:20:34Z</time>
      </trkpt>
      <trkpt lat="45.36424" lon="5.82341">
        <ele>1290</ele>
        <time>2022-07-30T08:20:51Z</time>
      </trkpt>
      <trkpt lat="45.3643" lon="5.82337">
        <ele>1291</ele>
        <time>2022-07-30T08:21:01Z</time>
      </trkpt>
      <trkpt lat="45.3644" lon="5.82338">
        <ele>1293</ele>
        <time>2022-07-30T08:21:41Z</time>
      </trkpt>
      <trkpt lat="45.36448" lon="5.82344">
        <ele>1294</ele>
        <time>2022-07-30T08:21:51Z</time>
      </trkpt>
      <trkpt lat="45.36453" lon="5.82343">
        <ele>1295</ele>
        <time>2022-07-30T08:21:58Z</time>
      </trkpt>
      <trkpt lat="45.36459" lon="5.82344">
        <ele>1296</ele>
        <time>2022-07-30T08:22:10Z</time>
      </trkpt>
      <trkpt lat="45.36465" lon="5.8234">
        <ele>1297</ele>
        <time>2022-07-30T08:22:22Z</time>
      </trkpt>
      <trkpt lat="45.36469" lon="5.82335">
        <ele>1298</ele>
        <time>2022-07-30T08:22:28Z</time>
      </trkpt>
      <trkpt lat="45.36473" lon="5.82332">
        <ele>1299</ele>
        <time>2022-07-30T08:22:35Z</time>
      </trkpt>
      <trkpt lat="45.36478" lon="5.82323">
        <ele>1300</ele>
        <time>2022-07-30T08:22:45Z</time>
      </trkpt>
      <trkpt lat="45.36482" lon="5.82319">
        <ele>1300</ele>
        <time>2022-07-30T08:22:49Z</time>
      </trkpt>
      <trkpt lat="45.36484" lon="5.82314">
        <ele>1300</ele>
        <time>2022-07-30T08:22:56Z</time>
      </trkpt>
      <trkpt lat="45.36491" lon="5.82302">
        <ele>1302</ele>
        <time>2022-07-30T08:23:14Z</time>
      </trkpt>
      <trkpt lat="45.36496" lon="5.823">
        <ele>1304</ele>
        <time>2022-07-30T08:23:24Z</time>
      </trkpt>
      <trkpt lat="45.3651" lon="5.82291">
        <ele>1306</ele>
        <time>2022-07-30T08:23:49Z</time>
      </trkpt>
      <trkpt lat="45.36521" lon="5.82292">
        <ele>1308</ele>
        <time>2022-07-30T08:24:10Z</time>
      </trkpt>
      <trkpt lat="45.36526" lon="5.82291">
        <ele>1308</ele>
        <time>2022-07-30T08:24:16Z</time>
      </trkpt>
      <trkpt lat="45.36536" lon="5.82287">
        <ele>1311</ele>
        <time>2022-07-30T08:25:00Z</time>
      </trkpt>
      <trkpt lat="45.36541" lon="5.82286">
        <ele>1313</ele>
        <time>2022-07-30T08:25:10Z</time>
      </trkpt>
      <trkpt lat="45.36547" lon="5.82288">
        <ele>1313</ele>
        <time>2022-07-30T08:25:20Z</time>
      </trkpt>
      <trkpt lat="45.36552" lon="5.82286">
        <ele>1313</ele>
        <time>2022-07-30T08:25:24Z</time>
      </trkpt>
      <trkpt lat="45.3656" lon="5.82281">
        <ele>1315</ele>
        <time>2022-07-30T08:25:34Z</time>
      </trkpt>
      <trkpt lat="45.36564" lon="5.82275">
        <ele>1315</ele>
        <time>2022-07-30T08:25:42Z</time>
      </trkpt>
      <trkpt lat="45.36573" lon="5.82267">
        <ele>1317</ele>
        <time>2022-07-30T08:25:56Z</time>
      </trkpt>
      <trkpt lat="45.36578" lon="5.82263">
        <ele>1318</ele>
        <time>2022-07-30T08:26:06Z</time>
      </trkpt>
      <trkpt lat="45.36589" lon="5.82253">
        <ele>1320</ele>
        <time>2022-07-30T08:26:29Z</time>
      </trkpt>
      <trkpt lat="45.36598" lon="5.8225">
        <ele>1321</ele>
        <time>2022-07-30T08:26:40Z</time>
      </trkpt>
      <trkpt lat="45.36602" lon="5.82253">
        <ele>1321</ele>
        <time>2022-07-30T08:26:48Z</time>
      </trkpt>
      <trkpt lat="45.36605" lon="5.8227">
        <ele>1323</ele>
        <time>2022-07-30T08:27:12Z</time>
      </trkpt>
      <trkpt lat="45.3661" lon="5.82279">
        <ele>1325</ele>
        <time>2022-07-30T08:27:27Z</time>
      </trkpt>
      <trkpt lat="45.36612" lon="5.82288">
        <ele>1327</ele>
        <time>2022-07-30T08:27:39Z</time>
      </trkpt>
      <trkpt lat="45.36612" lon="5.82295">
        <ele>1328</ele>
        <time>2022-07-30T08:27:46Z</time>
      </trkpt>
      <trkpt lat="45.36616" lon="5.82306">
        <ele>1328</ele>
        <time>2022-07-30T08:27:55Z</time>
      </trkpt>
      <trkpt lat="45.36619" lon="5.82311">
        <ele>1329</ele>
        <time>2022-07-30T08:28:00Z</time>
      </trkpt>
      <trkpt lat="45.36621" lon="5.82323">
        <ele>1330</ele>
        <time>2022-07-30T08:28:19Z</time>
      </trkpt>
      <trkpt lat="45.36622" lon="5.8234">
        <ele>1332</ele>
        <time>2022-07-30T08:28:35Z</time>
      </trkpt>
      <trkpt lat="45.36629" lon="5.82378">
        <ele>1335</ele>
        <time>2022-07-30T08:29:14Z</time>
      </trkpt>
      <trkpt lat="45.36634" lon="5.8239">
        <ele>1336</ele>
        <time>2022-07-30T08:29:29Z</time>
      </trkpt>
      <trkpt lat="45.36638" lon="5.82409">
        <ele>1337</ele>
        <time>2022-07-30T08:29:47Z</time>
      </trkpt>
      <trkpt lat="45.36642" lon="5.824">
        <ele>1338</ele>
        <time>2022-07-30T08:29:57Z</time>
      </trkpt>
      <trkpt lat="45.36641" lon="5.82382">
        <ele>1339</ele>
        <time>2022-07-30T08:30:15Z</time>
      </trkpt>
      <trkpt lat="45.36643" lon="5.82372">
        <ele>1341</ele>
        <time>2022-07-30T08:30:25Z</time>
      </trkpt>
      <trkpt lat="45.36644" lon="5.82365">
        <ele>1342</ele>
        <time>2022-07-30T08:30:35Z</time>
      </trkpt>
      <trkpt lat="45.36646" lon="5.82358">
        <ele>1343</ele>
        <time>2022-07-30T08:30:41Z</time>
      </trkpt>
      <trkpt lat="45.36645" lon="5.82352">
        <ele>1343</ele>
        <time>2022-07-30T08:30:46Z</time>
      </trkpt>
      <trkpt lat="45.36646" lon="5.82344">
        <ele>1344</ele>
        <time>2022-07-30T08:30:54Z</time>
      </trkpt>
      <trkpt lat="45.36646" lon="5.8233">
        <ele>1345</ele>
        <time>2022-07-30T08:31:07Z</time>
      </trkpt>
      <trkpt lat="45.3665" lon="5.82317">
        <ele>1347</ele>
        <time>2022-07-30T08:31:22Z</time>
      </trkpt>
      <trkpt lat="45.3665" lon="5.82311">
        <ele>1348</ele>
        <time>2022-07-30T08:31:35Z</time>
      </trkpt>
      <trkpt lat="45.36651" lon="5.82303">
        <ele>1349</ele>
        <time>2022-07-30T08:31:41Z</time>
      </trkpt>
      <trkpt lat="45.36655" lon="5.82296">
        <ele>1350</ele>
        <time>2022-07-30T08:31:50Z</time>
      </trkpt>
      <trkpt lat="45.36654" lon="5.82289">
        <ele>1352</ele>
        <time>2022-07-30T08:32:11Z</time>
      </trkpt>
      <trkpt lat="45.36656" lon="5.82281">
        <ele>1354</ele>
        <time>2022-07-30T08:32:28Z</time>
      </trkpt>
      <trkpt lat="45.36667" lon="5.82256">
        <ele>1358</ele>
        <time>2022-07-30T08:33:02Z</time>
      </trkpt>
      <trkpt lat="45.36669" lon="5.8225">
        <ele>1360</ele>
        <time>2022-07-30T08:33:17Z</time>
      </trkpt>
      <trkpt lat="45.36669" lon="5.82238">
        <ele>1360</ele>
        <time>2022-07-30T08:33:28Z</time>
      </trkpt>
      <trkpt lat="45.36668" lon="5.82232">
        <ele>1360</ele>
        <time>2022-07-30T08:33:38Z</time>
      </trkpt>
      <trkpt lat="45.36664" lon="5.82226">
        <ele>1362</ele>
        <time>2022-07-30T08:33:48Z</time>
      </trkpt>
      <trkpt lat="45.36664" lon="5.82221">
        <ele>1363</ele>
        <time>2022-07-30T08:33:55Z</time>
      </trkpt>
      <trkpt lat="45.36666" lon="5.82215">
        <ele>1364</ele>
        <time>2022-07-30T08:34:40Z</time>
      </trkpt>
      <trkpt lat="45.36665" lon="5.82217">
        <ele>1366</ele>
        <time>2022-07-30T08:35:00Z</time>
      </trkpt>
      <trkpt lat="45.3667" lon="5.82222">
        <ele>1369</ele>
        <time>2022-07-30T08:35:22Z</time>
      </trkpt>
      <trkpt lat="45.36673" lon="5.82229">
        <ele>1369</ele>
        <time>2022-07-30T08:35:32Z</time>
      </trkpt>
      <trkpt lat="45.36677" lon="5.82232">
        <ele>1370</ele>
        <time>2022-07-30T08:35:42Z</time>
      </trkpt>
      <trkpt lat="45.36682" lon="5.82231">
        <ele>1371</ele>
        <time>2022-07-30T08:35:47Z</time>
      </trkpt>
      <trkpt lat="45.3668" lon="5.82221">
        <ele>1373</ele>
        <time>2022-07-30T08:35:56Z</time>
      </trkpt>
      <trkpt lat="45.36684" lon="5.8221">
        <ele>1374</ele>
        <time>2022-07-30T08:36:09Z</time>
      </trkpt>
      <trkpt lat="45.36681" lon="5.82202">
        <ele>1376</ele>
        <time>2022-07-30T08:36:22Z</time>
      </trkpt>
      <trkpt lat="45.36684" lon="5.82197">
        <ele>1377</ele>
        <time>2022-07-30T08:36:33Z</time>
      </trkpt>
      <trkpt lat="45.36687" lon="5.82193">
        <ele>1378</ele>
        <time>2022-07-30T08:36:43Z</time>
      </trkpt>
      <trkpt lat="45.36686" lon="5.82186">
        <ele>1380</ele>
        <time>2022-07-30T08:36:53Z</time>
      </trkpt>
      <trkpt lat="45.36689" lon="5.82179">
        <ele>1382</ele>
        <time>2022-07-30T08:37:16Z</time>
      </trkpt>
      <trkpt lat="45.36685" lon="5.82179">
        <ele>1382</ele>
        <time>2022-07-30T08:37:31Z</time>
      </trkpt>
      <trkpt lat="45.36684" lon="5.82185">
        <ele>1384</ele>
        <time>2022-07-30T08:37:51Z</time>
      </trkpt>
      <trkpt lat="45.36684" lon="5.82192">
        <ele>1385</ele>
        <time>2022-07-30T08:38:02Z</time>
      </trkpt>
      <trkpt lat="45.36695" lon="5.82204">
        <ele>1388</ele>
        <time>2022-07-30T08:38:25Z</time>
      </trkpt>
      <trkpt lat="45.36697" lon="5.82213">
        <ele>1389</ele>
        <time>2022-07-30T08:38:34Z</time>
      </trkpt>
      <trkpt lat="45.36701" lon="5.82219">
        <ele>1389</ele>
        <time>2022-07-30T08:38:39Z</time>
      </trkpt>
      <trkpt lat="45.36707" lon="5.8222">
        <ele>1390</ele>
        <time>2022-07-30T08:38:52Z</time>
      </trkpt>
      <trkpt lat="45.3671" lon="5.82231">
        <ele>1391</ele>
        <time>2022-07-30T08:39:02Z</time>
      </trkpt>
      <trkpt lat="45.36707" lon="5.82239">
        <ele>1394</ele>
        <time>2022-07-30T08:39:25Z</time>
      </trkpt>
      <trkpt lat="45.36706" lon="5.82248">
        <ele>1394</ele>
        <time>2022-07-30T08:39:35Z</time>
      </trkpt>
      <trkpt lat="45.36705" lon="5.82266">
        <ele>1397</ele>
        <time>2022-07-30T08:39:56Z</time>
      </trkpt>
      <trkpt lat="45.36706" lon="5.82274">
        <ele>1397</ele>
        <time>2022-07-30T08:40:06Z</time>
      </trkpt>
      <trkpt lat="45.36705" lon="5.8229">
        <ele>1399</ele>
        <time>2022-07-30T08:40:26Z</time>
      </trkpt>
      <trkpt lat="45.36708" lon="5.82304">
        <ele>1400</ele>
        <time>2022-07-30T08:40:42Z</time>
      </trkpt>
      <trkpt lat="45.36709" lon="5.82311">
        <ele>1401</ele>
        <time>2022-07-30T08:40:52Z</time>
      </trkpt>
      <trkpt lat="45.36711" lon="5.82317">
        <ele>1402</ele>
        <time>2022-07-30T08:41:02Z</time>
      </trkpt>
      <trkpt lat="45.36713" lon="5.82326">
        <ele>1404</ele>
        <time>2022-07-30T08:41:31Z</time>
      </trkpt>
      <trkpt lat="45.36718" lon="5.82319">
        <ele>1404</ele>
        <time>2022-07-30T08:41:49Z</time>
      </trkpt>
      <trkpt lat="45.36717" lon="5.82306">
        <ele>1405</ele>
        <time>2022-07-30T08:42:00Z</time>
      </trkpt>
      <trkpt lat="45.36721" lon="5.82298">
        <ele>1406</ele>
        <time>2022-07-30T08:42:21Z</time>
      </trkpt>
      <trkpt lat="45.36719" lon="5.8229">
        <ele>1407</ele>
        <time>2022-07-30T08:42:31Z</time>
      </trkpt>
      <trkpt lat="45.3672" lon="5.82278">
        <ele>1409</ele>
        <time>2022-07-30T08:42:41Z</time>
      </trkpt>
      <trkpt lat="45.36724" lon="5.8227">
        <ele>1410</ele>
        <time>2022-07-30T08:42:55Z</time>
      </trkpt>
      <trkpt lat="45.36727" lon="5.82259">
        <ele>1412</ele>
        <time>2022-07-30T08:43:16Z</time>
      </trkpt>
      <trkpt lat="45.36732" lon="5.82255">
        <ele>1413</ele>
        <time>2022-07-30T08:43:27Z</time>
      </trkpt>
      <trkpt lat="45.36736" lon="5.8225">
        <ele>1414</ele>
        <time>2022-07-30T08:43:36Z</time>
      </trkpt>
      <trkpt lat="45.36741" lon="5.82249">
        <ele>1415</ele>
        <time>2022-07-30T08:43:47Z</time>
      </trkpt>
      <trkpt lat="45.36741" lon="5.82232">
        <ele>1416</ele>
        <time>2022-07-30T08:44:02Z</time>
      </trkpt>
      <trkpt lat="45.36747" lon="5.82234">
        <ele>1417</ele>
        <time>2022-07-30T08:44:08Z</time>
      </trkpt>
      <trkpt lat="45.36754" lon="5.82224">
        <ele>1418</ele>
        <time>2022-07-30T08:44:28Z</time>
      </trkpt>
      <trkpt lat="45.36755" lon="5.82214">
        <ele>1421</ele>
        <time>2022-07-30T08:44:45Z</time>
      </trkpt>
      <trkpt lat="45.36748" lon="5.82209">
        <ele>1421</ele>
        <time>2022-07-30T08:44:51Z</time>
      </trkpt>
      <trkpt lat="45.36749" lon="5.82194">
        <ele>1423</ele>
        <time>2022-07-30T08:45:03Z</time>
      </trkpt>
      <trkpt lat="45.36746" lon="5.82185">
        <ele>1426</ele>
        <time>2022-07-30T08:45:34Z</time>
      </trkpt>
      <trkpt lat="45.36747" lon="5.82177">
        <ele>1426</ele>
        <time>2022-07-30T08:45:38Z</time>
      </trkpt>
      <trkpt lat="45.36741" lon="5.82171">
        <ele>1426</ele>
        <time>2022-07-30T08:45:46Z</time>
      </trkpt>
      <trkpt lat="45.36742" lon="5.82164">
        <ele>1427</ele>
        <time>2022-07-30T08:45:58Z</time>
      </trkpt>
      <trkpt lat="45.36742" lon="5.82158">
        <ele>1427</ele>
        <time>2022-07-30T08:46:08Z</time>
      </trkpt>
      <trkpt lat="45.36744" lon="5.82142">
        <ele>1428</ele>
        <time>2022-07-30T08:46:24Z</time>
      </trkpt>
      <trkpt lat="45.36746" lon="5.82142">
        <ele>1433</ele>
        <time>2022-07-30T08:47:15Z</time>
      </trkpt>
      <trkpt lat="45.36755" lon="5.82166">
        <ele>1437</ele>
        <time>2022-07-30T08:47:57Z</time>
      </trkpt>
      <trkpt lat="45.36758" lon="5.82172">
        <ele>1438</ele>
        <time>2022-07-30T08:48:07Z</time>
      </trkpt>
      <trkpt lat="45.36777" lon="5.82196">
        <ele>1442</ele>
        <time>2022-07-30T08:48:53Z</time>
      </trkpt>
      <trkpt lat="45.36787" lon="5.82207">
        <ele>1444</ele>
        <time>2022-07-30T08:49:11Z</time>
      </trkpt>
      <trkpt lat="45.36797" lon="5.82214">
        <ele>1445</ele>
        <time>2022-07-30T08:49:31Z</time>
      </trkpt>
      <trkpt lat="45.36794" lon="5.82223">
        <ele>1447</ele>
        <time>2022-07-30T08:49:48Z</time>
      </trkpt>
      <trkpt lat="45.36797" lon="5.82232">
        <ele>1449</ele>
        <time>2022-07-30T08:50:08Z</time>
      </trkpt>
      <trkpt lat="45.36794" lon="5.82238">
        <ele>1450</ele>
        <time>2022-07-30T08:50:19Z</time>
      </trkpt>
      <trkpt lat="45.36791" lon="5.82245">
        <ele>1451</ele>
        <time>2022-07-30T08:50:31Z</time>
      </trkpt>
      <trkpt lat="45.36789" lon="5.82255">
        <ele>1452</ele>
        <time>2022-07-30T08:50:41Z</time>
      </trkpt>
      <trkpt lat="45.36786" lon="5.8226">
        <ele>1454</ele>
        <time>2022-07-30T08:50:56Z</time>
      </trkpt>
      <trkpt lat="45.36787" lon="5.82267">
        <ele>1455</ele>
        <time>2022-07-30T08:51:07Z</time>
      </trkpt>
      <trkpt lat="45.36784" lon="5.82273">
        <ele>1456</ele>
        <time>2022-07-30T08:51:17Z</time>
      </trkpt>
      <trkpt lat="45.36779" lon="5.82277">
        <ele>1458</ele>
        <time>2022-07-30T08:51:32Z</time>
      </trkpt>
      <trkpt lat="45.3678" lon="5.82285">
        <ele>1459</ele>
        <time>2022-07-30T08:51:43Z</time>
      </trkpt>
      <trkpt lat="45.36782" lon="5.82292">
        <ele>1460</ele>
        <time>2022-07-30T08:51:48Z</time>
      </trkpt>
      <trkpt lat="45.36784" lon="5.823">
        <ele>1461</ele>
        <time>2022-07-30T08:51:59Z</time>
      </trkpt>
      <trkpt lat="45.36788" lon="5.82293">
        <ele>1463</ele>
        <time>2022-07-30T08:52:14Z</time>
      </trkpt>
      <trkpt lat="45.36796" lon="5.82287">
        <ele>1464</ele>
        <time>2022-07-30T08:52:29Z</time>
      </trkpt>
      <trkpt lat="45.36802" lon="5.82282">
        <ele>1464</ele>
        <time>2022-07-30T08:52:39Z</time>
      </trkpt>
      <trkpt lat="45.36802" lon="5.82274">
        <ele>1464</ele>
        <time>2022-07-30T08:52:44Z</time>
      </trkpt>
      <trkpt lat="45.36809" lon="5.82276">
        <ele>1465</ele>
        <time>2022-07-30T08:53:00Z</time>
      </trkpt>
      <trkpt lat="45.36811" lon="5.82267">
        <ele>1466</ele>
        <time>2022-07-30T08:53:10Z</time>
      </trkpt>
      <trkpt lat="45.36821" lon="5.82264">
        <ele>1467</ele>
        <time>2022-07-30T08:53:20Z</time>
      </trkpt>
      <trkpt lat="45.36823" lon="5.82259">
        <ele>1468</ele>
        <time>2022-07-30T08:53:32Z</time>
      </trkpt>
      <trkpt lat="45.36823" lon="5.82258">
        <ele>1471</ele>
        <time>2022-07-30T08:54:00Z</time>
      </trkpt>
      <trkpt lat="45.36819" lon="5.82264">
        <ele>1473</ele>
        <time>2022-07-30T08:54:21Z</time>
      </trkpt>
      <trkpt lat="45.36819" lon="5.82273">
        <ele>1474</ele>
        <time>2022-07-30T08:54:31Z</time>
      </trkpt>
      <trkpt lat="45.36813" lon="5.82276">
        <ele>1475</ele>
        <time>2022-07-30T08:54:41Z</time>
      </trkpt>
      <trkpt lat="45.36813" lon="5.82282">
        <ele>1476</ele>
        <time>2022-07-30T08:54:51Z</time>
      </trkpt>
      <trkpt lat="45.36808" lon="5.82296">
        <ele>1478</ele>
        <time>2022-07-30T08:55:11Z</time>
      </trkpt>
      <trkpt lat="45.36806" lon="5.82305">
        <ele>1479</ele>
        <time>2022-07-30T08:55:21Z</time>
      </trkpt>
      <trkpt lat="45.36811" lon="5.82306">
        <ele>1479</ele>
        <time>2022-07-30T08:55:30Z</time>
      </trkpt>
      <trkpt lat="45.36826" lon="5.82293">
        <ele>1481</ele>
        <time>2022-07-30T08:55:58Z</time>
      </trkpt>
      <trkpt lat="45.36832" lon="5.82287">
        <ele>1482</ele>
        <time>2022-07-30T08:56:09Z</time>
      </trkpt>
      <trkpt lat="45.36841" lon="5.82277">
        <ele>1483</ele>
        <time>2022-07-30T08:56:26Z</time>
      </trkpt>
      <trkpt lat="45.36836" lon="5.82294">
        <ele>1488</ele>
        <time>2022-07-30T08:57:04Z</time>
      </trkpt>
      <trkpt lat="45.36833" lon="5.82299">
        <ele>1489</ele>
        <time>2022-07-30T08:57:20Z</time>
      </trkpt>
      <trkpt lat="45.36829" lon="5.82307">
        <ele>1490</ele>
        <time>2022-07-30T08:57:35Z</time>
      </trkpt>
      <trkpt lat="45.36828" lon="5.82317">
        <ele>1491</ele>
        <time>2022-07-30T08:57:45Z</time>
      </trkpt>
      <trkpt lat="45.36826" lon="5.82324">
        <ele>1491</ele>
        <time>2022-07-30T08:57:53Z</time>
      </trkpt>
      <trkpt lat="45.36823" lon="5.82331">
        <ele>1492</ele>
        <time>2022-07-30T08:58:04Z</time>
      </trkpt>
      <trkpt lat="45.36824" lon="5.82338">
        <ele>1494</ele>
        <time>2022-07-30T08:58:19Z</time>
      </trkpt>
      <trkpt lat="45.36826" lon="5.82346">
        <ele>1494</ele>
        <time>2022-07-30T08:58:29Z</time>
      </trkpt>
      <trkpt lat="45.36829" lon="5.82351">
        <ele>1494</ele>
        <time>2022-07-30T08:58:35Z</time>
      </trkpt>
      <trkpt lat="45.36833" lon="5.82357">
        <ele>1495</ele>
        <time>2022-07-30T08:58:45Z</time>
      </trkpt>
      <trkpt lat="45.36837" lon="5.8236">
        <ele>1496</ele>
        <time>2022-07-30T08:58:55Z</time>
      </trkpt>
      <trkpt lat="45.36841" lon="5.82368">
        <ele>1497</ele>
        <time>2022-07-30T08:59:20Z</time>
      </trkpt>
      <trkpt lat="45.36844" lon="5.82373">
        <ele>1498</ele>
        <time>2022-07-30T08:59:30Z</time>
      </trkpt>
      <trkpt lat="45.36848" lon="5.82369">
        <ele>1499</ele>
        <time>2022-07-30T08:59:40Z</time>
      </trkpt>
      <trkpt lat="45.36849" lon="5.82362">
        <ele>1500</ele>
        <time>2022-07-30T08:59:50Z</time>
      </trkpt>
      <trkpt lat="45.36849" lon="5.82355">
        <ele>1501</ele>
        <time>2022-07-30T09:00:00Z</time>
      </trkpt>
      <trkpt lat="45.36851" lon="5.82348">
        <ele>1502</ele>
        <time>2022-07-30T09:00:11Z</time>
      </trkpt>
      <trkpt lat="45.36853" lon="5.82342">
        <ele>1503</ele>
        <time>2022-07-30T09:00:22Z</time>
      </trkpt>
      <trkpt lat="45.36856" lon="5.82333">
        <ele>1504</ele>
        <time>2022-07-30T09:00:32Z</time>
      </trkpt>
      <trkpt lat="45.36862" lon="5.82323">
        <ele>1505</ele>
        <time>2022-07-30T09:00:52Z</time>
      </trkpt>
      <trkpt lat="45.36877" lon="5.82311">
        <ele>1509</ele>
        <time>2022-07-30T09:01:27Z</time>
      </trkpt>
      <trkpt lat="45.36889" lon="5.8229">
        <ele>1512</ele>
        <time>2022-07-30T09:01:59Z</time>
      </trkpt>
      <trkpt lat="45.36893" lon="5.82284">
        <ele>1513</ele>
        <time>2022-07-30T09:02:10Z</time>
      </trkpt>
      <trkpt lat="45.36893" lon="5.82289">
        <ele>1518</ele>
        <time>2022-07-30T09:03:03Z</time>
      </trkpt>
      <trkpt lat="45.36891" lon="5.82296">
        <ele>1519</ele>
        <time>2022-07-30T09:03:18Z</time>
      </trkpt>
      <trkpt lat="45.36888" lon="5.82313">
        <ele>1521</ele>
        <time>2022-07-30T09:03:38Z</time>
      </trkpt>
      <trkpt lat="45.3689" lon="5.82323">
        <ele>1522</ele>
        <time>2022-07-30T09:03:49Z</time>
      </trkpt>
      <trkpt lat="45.36889" lon="5.8233">
        <ele>1523</ele>
        <time>2022-07-30T09:03:59Z</time>
      </trkpt>
      <trkpt lat="45.36889" lon="5.8234">
        <ele>1524</ele>
        <time>2022-07-30T09:04:09Z</time>
      </trkpt>
      <trkpt lat="45.36888" lon="5.8235">
        <ele>1525</ele>
        <time>2022-07-30T09:04:19Z</time>
      </trkpt>
      <trkpt lat="45.36892" lon="5.82358">
        <ele>1526</ele>
        <time>2022-07-30T09:04:30Z</time>
      </trkpt>
      <trkpt lat="45.36898" lon="5.82374">
        <ele>1528</ele>
        <time>2022-07-30T09:04:51Z</time>
      </trkpt>
      <trkpt lat="45.36898" lon="5.82381">
        <ele>1528</ele>
        <time>2022-07-30T09:04:56Z</time>
      </trkpt>
      <trkpt lat="45.36899" lon="5.8239">
        <ele>1528</ele>
        <time>2022-07-30T09:05:03Z</time>
      </trkpt>
      <trkpt lat="45.36901" lon="5.82395">
        <ele>1528</ele>
        <time>2022-07-30T09:05:10Z</time>
      </trkpt>
      <trkpt lat="45.36904" lon="5.82411">
        <ele>1531</ele>
        <time>2022-07-30T09:05:30Z</time>
      </trkpt>
      <trkpt lat="45.36908" lon="5.82417">
        <ele>1531</ele>
        <time>2022-07-30T09:05:40Z</time>
      </trkpt>
      <trkpt lat="45.36909" lon="5.82422">
        <ele>1532</ele>
        <time>2022-07-30T09:05:45Z</time>
      </trkpt>
      <trkpt lat="45.36912" lon="5.82428">
        <ele>1533</ele>
        <time>2022-07-30T09:05:55Z</time>
      </trkpt>
      <trkpt lat="45.36918" lon="5.82417">
        <ele>1535</ele>
        <time>2022-07-30T09:06:28Z</time>
      </trkpt>
      <trkpt lat="45.36923" lon="5.82415">
        <ele>1535</ele>
        <time>2022-07-30T09:07:15Z</time>
      </trkpt>
      <trkpt lat="45.36921" lon="5.82407">
        <ele>1536</ele>
        <time>2022-07-30T09:07:25Z</time>
      </trkpt>
      <trkpt lat="45.36923" lon="5.82399">
        <ele>1538</ele>
        <time>2022-07-30T09:07:40Z</time>
      </trkpt>
      <trkpt lat="45.36925" lon="5.82392">
        <ele>1538</ele>
        <time>2022-07-30T09:07:44Z</time>
      </trkpt>
      <trkpt lat="45.36926" lon="5.82382">
        <ele>1540</ele>
        <time>2022-07-30T09:07:57Z</time>
      </trkpt>
      <trkpt lat="45.3693" lon="5.82376">
        <ele>1541</ele>
        <time>2022-07-30T09:08:12Z</time>
      </trkpt>
      <trkpt lat="45.36932" lon="5.82382">
        <ele>1547</ele>
        <time>2022-07-30T09:08:57Z</time>
      </trkpt>
      <trkpt lat="45.36933" lon="5.82389">
        <ele>1548</ele>
        <time>2022-07-30T09:09:07Z</time>
      </trkpt>
      <trkpt lat="45.36935" lon="5.82399">
        <ele>1548</ele>
        <time>2022-07-30T09:09:18Z</time>
      </trkpt>
      <trkpt lat="45.36939" lon="5.82407">
        <ele>1549</ele>
        <time>2022-07-30T09:09:28Z</time>
      </trkpt>
      <trkpt lat="45.36943" lon="5.82402">
        <ele>1549</ele>
        <time>2022-07-30T09:09:34Z</time>
      </trkpt>
      <trkpt lat="45.36943" lon="5.82393">
        <ele>1550</ele>
        <time>2022-07-30T09:09:44Z</time>
      </trkpt>
      <trkpt lat="45.36945" lon="5.82386">
        <ele>1552</ele>
        <time>2022-07-30T09:09:59Z</time>
      </trkpt>
      <trkpt lat="45.36945" lon="5.82378">
        <ele>1553</ele>
        <time>2022-07-30T09:10:10Z</time>
      </trkpt>
      <trkpt lat="45.36947" lon="5.82373">
        <ele>1554</ele>
        <time>2022-07-30T09:10:20Z</time>
      </trkpt>
      <trkpt lat="45.36947" lon="5.82355">
        <ele>1557</ele>
        <time>2022-07-30T09:10:41Z</time>
      </trkpt>
      <trkpt lat="45.36946" lon="5.82354">
        <ele>1560</ele>
        <time>2022-07-30T09:11:07Z</time>
      </trkpt>
      <trkpt lat="45.36947" lon="5.82362">
        <ele>1561</ele>
        <time>2022-07-30T09:11:17Z</time>
      </trkpt>
      <trkpt lat="45.36949" lon="5.82369">
        <ele>1562</ele>
        <time>2022-07-30T09:11:28Z</time>
      </trkpt>
      <trkpt lat="45.36954" lon="5.82376">
        <ele>1563</ele>
        <time>2022-07-30T09:11:38Z</time>
      </trkpt>
      <trkpt lat="45.36959" lon="5.8238">
        <ele>1564</ele>
        <time>2022-07-30T09:11:50Z</time>
      </trkpt>
      <trkpt lat="45.36963" lon="5.82377">
        <ele>1564</ele>
        <time>2022-07-30T09:11:55Z</time>
      </trkpt>
      <trkpt lat="45.36974" lon="5.82376">
        <ele>1566</ele>
        <time>2022-07-30T09:12:13Z</time>
      </trkpt>
      <trkpt lat="45.36978" lon="5.82372">
        <ele>1567</ele>
        <time>2022-07-30T09:12:23Z</time>
      </trkpt>
      <trkpt lat="45.36981" lon="5.82364">
        <ele>1568</ele>
        <time>2022-07-30T09:12:33Z</time>
      </trkpt>
      <trkpt lat="45.36976" lon="5.82352">
        <ele>1571</ele>
        <time>2022-07-30T09:12:54Z</time>
      </trkpt>
      <trkpt lat="45.36979" lon="5.82358">
        <ele>1573</ele>
        <time>2022-07-30T09:13:09Z</time>
      </trkpt>
      <trkpt lat="45.36984" lon="5.82358">
        <ele>1575</ele>
        <time>2022-07-30T09:13:30Z</time>
      </trkpt>
      <trkpt lat="45.36992" lon="5.82358">
        <ele>1576</ele>
        <time>2022-07-30T09:13:40Z</time>
      </trkpt>
      <trkpt lat="45.36995" lon="5.82353">
        <ele>1577</ele>
        <time>2022-07-30T09:13:46Z</time>
      </trkpt>
      <trkpt lat="45.36996" lon="5.82347">
        <ele>1578</ele>
        <time>2022-07-30T09:13:58Z</time>
      </trkpt>
      <trkpt lat="45.37" lon="5.82343">
        <ele>1581</ele>
        <time>2022-07-30T09:14:18Z</time>
      </trkpt>
      <trkpt lat="45.37004" lon="5.82339">
        <ele>1582</ele>
        <time>2022-07-30T09:14:29Z</time>
      </trkpt>
      <trkpt lat="45.37001" lon="5.82329">
        <ele>1584</ele>
        <time>2022-07-30T09:14:39Z</time>
      </trkpt>
      <trkpt lat="45.37006" lon="5.8233">
        <ele>1587</ele>
        <time>2022-07-30T09:15:06Z</time>
      </trkpt>
      <trkpt lat="45.37011" lon="5.82332">
        <ele>1588</ele>
        <time>2022-07-30T09:15:17Z</time>
      </trkpt>
      <trkpt lat="45.37017" lon="5.82331">
        <ele>1591</ele>
        <time>2022-07-30T09:15:38Z</time>
      </trkpt>
      <trkpt lat="45.37026" lon="5.8231">
        <ele>1594</ele>
        <time>2022-07-30T09:16:11Z</time>
      </trkpt>
      <trkpt lat="45.37026" lon="5.82315">
        <ele>1599</ele>
        <time>2022-07-30T09:16:53Z</time>
      </trkpt>
      <trkpt lat="45.3703" lon="5.8232">
        <ele>1599</ele>
        <time>2022-07-30T09:17:03Z</time>
      </trkpt>
      <trkpt lat="45.37035" lon="5.82319">
        <ele>1600</ele>
        <time>2022-07-30T09:17:14Z</time>
      </trkpt>
      <trkpt lat="45.37039" lon="5.82315">
        <ele>1601</ele>
        <time>2022-07-30T09:17:24Z</time>
      </trkpt>
      <trkpt lat="45.37045" lon="5.82312">
        <ele>1602</ele>
        <time>2022-07-30T09:17:34Z</time>
      </trkpt>
      <trkpt lat="45.37045" lon="5.82304">
        <ele>1604</ele>
        <time>2022-07-30T09:17:49Z</time>
      </trkpt>
      <trkpt lat="45.37048" lon="5.82304">
        <ele>1610</ele>
        <time>2022-07-30T09:18:39Z</time>
      </trkpt>
      <trkpt lat="45.37053" lon="5.82305">
        <ele>1610</ele>
        <time>2022-07-30T09:18:49Z</time>
      </trkpt>
      <trkpt lat="45.37059" lon="5.82306">
        <ele>1612</ele>
        <time>2022-07-30T09:19:00Z</time>
      </trkpt>
      <trkpt lat="45.37062" lon="5.82299">
        <ele>1613</ele>
        <time>2022-07-30T09:19:12Z</time>
      </trkpt>
      <trkpt lat="45.37062" lon="5.82291">
        <ele>1615</ele>
        <time>2022-07-30T09:19:23Z</time>
      </trkpt>
      <trkpt lat="45.3706" lon="5.82282">
        <ele>1617</ele>
        <time>2022-07-30T09:19:38Z</time>
      </trkpt>
      <trkpt lat="45.37066" lon="5.82285">
        <ele>1621</ele>
        <time>2022-07-30T09:20:18Z</time>
      </trkpt>
      <trkpt lat="45.37072" lon="5.82287">
        <ele>1622</ele>
        <time>2022-07-30T09:20:33Z</time>
      </trkpt>
      <trkpt lat="45.37077" lon="5.82288">
        <ele>1623</ele>
        <time>2022-07-30T09:20:43Z</time>
      </trkpt>
      <trkpt lat="45.37082" lon="5.8229">
        <ele>1624</ele>
        <time>2022-07-30T09:20:53Z</time>
      </trkpt>
      <trkpt lat="45.37087" lon="5.82286">
        <ele>1626</ele>
        <time>2022-07-30T09:21:04Z</time>
      </trkpt>
      <trkpt lat="45.37087" lon="5.82277">
        <ele>1627</ele>
        <time>2022-07-30T09:21:16Z</time>
      </trkpt>
      <trkpt lat="45.37083" lon="5.8227">
        <ele>1628</ele>
        <time>2022-07-30T09:21:28Z</time>
      </trkpt>
      <trkpt lat="45.37087" lon="5.82256">
        <ele>1632</ele>
        <time>2022-07-30T09:22:03Z</time>
      </trkpt>
      <trkpt lat="45.3709" lon="5.82251">
        <ele>1633</ele>
        <time>2022-07-30T09:22:18Z</time>
      </trkpt>
      <trkpt lat="45.37092" lon="5.82243">
        <ele>1634</ele>
        <time>2022-07-30T09:22:28Z</time>
      </trkpt>
      <trkpt lat="45.37094" lon="5.82237">
        <ele>1634</ele>
        <time>2022-07-30T09:22:33Z</time>
      </trkpt>
      <trkpt lat="45.37097" lon="5.82227">
        <ele>1634</ele>
        <time>2022-07-30T09:22:42Z</time>
      </trkpt>
      <trkpt lat="45.37098" lon="5.82219">
        <ele>1634</ele>
        <time>2022-07-30T09:22:49Z</time>
      </trkpt>
      <trkpt lat="45.37098" lon="5.82208">
        <ele>1634</ele>
        <time>2022-07-30T09:22:59Z</time>
      </trkpt>
      <trkpt lat="45.37099" lon="5.82196">
        <ele>1634</ele>
        <time>2022-07-30T09:23:10Z</time>
      </trkpt>
      <trkpt lat="45.371" lon="5.82189">
        <ele>1634</ele>
        <time>2022-07-30T09:23:16Z</time>
      </trkpt>
      <trkpt lat="45.37101" lon="5.8218">
        <ele>1634</ele>
        <time>2022-07-30T09:23:26Z</time>
      </trkpt>
      <trkpt lat="45.37106" lon="5.82168">
        <ele>1636</ele>
        <time>2022-07-30T09:23:41Z</time>
      </trkpt>
      <trkpt lat="45.37105" lon="5.8216">
        <ele>1637</ele>
        <time>2022-07-30T09:23:49Z</time>
      </trkpt>
      <trkpt lat="45.37108" lon="5.82151">
        <ele>1638</ele>
        <time>2022-07-30T09:23:59Z</time>
      </trkpt>
      <trkpt lat="45.37113" lon="5.82141">
        <ele>1638</ele>
        <time>2022-07-30T09:24:10Z</time>
      </trkpt>
      <trkpt lat="45.37125" lon="5.8212">
        <ele>1637</ele>
        <time>2022-07-30T09:24:31Z</time>
      </trkpt>
      <trkpt lat="45.37127" lon="5.82114">
        <ele>1638</ele>
        <time>2022-07-30T09:24:46Z</time>
      </trkpt>
      <trkpt lat="45.37131" lon="5.82109">
        <ele>1638</ele>
        <time>2022-07-30T09:25:17Z</time>
      </trkpt>
      <trkpt lat="45.37133" lon="5.82102">
        <ele>1639</ele>
        <time>2022-07-30T09:25:22Z</time>
      </trkpt>
      <trkpt lat="45.37135" lon="5.82097">
        <ele>1639</ele>
        <time>2022-07-30T09:25:26Z</time>
      </trkpt>
      <trkpt lat="45.37137" lon="5.8209">
        <ele>1638</ele>
        <time>2022-07-30T09:25:33Z</time>
      </trkpt>
      <trkpt lat="45.37142" lon="5.82085">
        <ele>1638</ele>
        <time>2022-07-30T09:26:00Z</time>
      </trkpt>
      <trkpt lat="45.37146" lon="5.82079">
        <ele>1639</ele>
        <time>2022-07-30T09:26:15Z</time>
      </trkpt>
      <trkpt lat="45.37145" lon="5.82073">
        <ele>1640</ele>
        <time>2022-07-30T09:26:20Z</time>
      </trkpt>
      <trkpt lat="45.37147" lon="5.82074">
        <ele>1641</ele>
        <time>2022-07-30T09:31:07Z</time>
      </trkpt>
      <trkpt lat="45.37146" lon="5.82075">
        <ele>1640</ele>
        <time>2022-07-30T09:35:03Z</time>
      </trkpt>
      <trkpt lat="45.37145" lon="5.82072">
        <ele>1638</ele>
        <time>2022-07-30T09:42:11Z</time>
      </trkpt>
      <trkpt lat="45.37147" lon="5.82074">
        <ele>1638</ele>
        <time>2022-07-30T09:43:28Z</time>
      </trkpt>
      <trkpt lat="45.37146" lon="5.82071">
        <ele>1639</ele>
        <time>2022-07-30T09:46:22Z</time>
      </trkpt>
      <trkpt lat="45.37143" lon="5.8206">
        <ele>1639</ele>
        <time>2022-07-30T09:55:35Z</time>
      </trkpt>
      <trkpt lat="45.37143" lon="5.82053">
        <ele>1640</ele>
        <time>2022-07-30T09:55:42Z</time>
      </trkpt>
      <trkpt lat="45.37141" lon="5.82036">
        <ele>1641</ele>
        <time>2022-07-30T09:56:02Z</time>
      </trkpt>
      <trkpt lat="45.37138" lon="5.82029">
        <ele>1643</ele>
        <time>2022-07-30T09:56:12Z</time>
      </trkpt>
      <trkpt lat="45.37136" lon="5.82015">
        <ele>1646</ele>
        <time>2022-07-30T09:56:37Z</time>
      </trkpt>
      <trkpt lat="45.37133" lon="5.82009">
        <ele>1649</ele>
        <time>2022-07-30T09:56:54Z</time>
      </trkpt>
      <trkpt lat="45.37134" lon="5.82001">
        <ele>1651</ele>
        <time>2022-07-30T09:57:11Z</time>
      </trkpt>
      <trkpt lat="45.37133" lon="5.81987">
        <ele>1656</ele>
        <time>2022-07-30T09:57:46Z</time>
      </trkpt>
      <trkpt lat="45.37131" lon="5.81973">
        <ele>1660</ele>
        <time>2022-07-30T09:58:21Z</time>
      </trkpt>
      <trkpt lat="45.37131" lon="5.81959">
        <ele>1666</ele>
        <time>2022-07-30T09:59:10Z</time>
      </trkpt>
      <trkpt lat="45.37131" lon="5.81953">
        <ele>1669</ele>
        <time>2022-07-30T09:59:25Z</time>
      </trkpt>
      <trkpt lat="45.37129" lon="5.81945">
        <ele>1671</ele>
        <time>2022-07-30T09:59:40Z</time>
      </trkpt>
      <trkpt lat="45.37122" lon="5.81931">
        <ele>1674</ele>
        <time>2022-07-30T10:00:05Z</time>
      </trkpt>
      <trkpt lat="45.37116" lon="5.81925">
        <ele>1675</ele>
        <time>2022-07-30T10:00:15Z</time>
      </trkpt>
      <trkpt lat="45.37103" lon="5.81903">
        <ele>1676</ele>
        <time>2022-07-30T10:00:46Z</time>
      </trkpt>
      <trkpt lat="45.37101" lon="5.81896">
        <ele>1676</ele>
        <time>2022-07-30T10:00:52Z</time>
      </trkpt>
      <trkpt lat="45.37093" lon="5.81881">
        <ele>1678</ele>
        <time>2022-07-30T10:01:12Z</time>
      </trkpt>
      <trkpt lat="45.37088" lon="5.81876">
        <ele>1678</ele>
        <time>2022-07-30T10:01:23Z</time>
      </trkpt>
      <trkpt lat="45.37084" lon="5.81873">
        <ele>1678</ele>
        <time>2022-07-30T10:01:33Z</time>
      </trkpt>
      <trkpt lat="45.37077" lon="5.81868">
        <ele>1678</ele>
        <time>2022-07-30T10:01:50Z</time>
      </trkpt>
      <trkpt lat="45.37074" lon="5.81863">
        <ele>1679</ele>
        <time>2022-07-30T10:02:00Z</time>
      </trkpt>
      <trkpt lat="45.37073" lon="5.81856">
        <ele>1679</ele>
        <time>2022-07-30T10:02:10Z</time>
      </trkpt>
      <trkpt lat="45.37069" lon="5.81853">
        <ele>1678</ele>
        <time>2022-07-30T10:02:16Z</time>
      </trkpt>
      <trkpt lat="45.37065" lon="5.81852">
        <ele>1677</ele>
        <time>2022-07-30T10:02:23Z</time>
      </trkpt>
      <trkpt lat="45.37059" lon="5.81849">
        <ele>1678</ele>
        <time>2022-07-30T10:02:33Z</time>
      </trkpt>
      <trkpt lat="45.37056" lon="5.81844">
        <ele>1679</ele>
        <time>2022-07-30T10:02:43Z</time>
      </trkpt>
      <trkpt lat="45.37052" lon="5.81844">
        <ele>1679</ele>
        <time>2022-07-30T10:02:48Z</time>
      </trkpt>
      <trkpt lat="45.37049" lon="5.81836">
        <ele>1680</ele>
        <time>2022-07-30T10:02:58Z</time>
      </trkpt>
      <trkpt lat="45.37044" lon="5.81832">
        <ele>1681</ele>
        <time>2022-07-30T10:03:10Z</time>
      </trkpt>
      <trkpt lat="45.37041" lon="5.81822">
        <ele>1683</ele>
        <time>2022-07-30T10:03:22Z</time>
      </trkpt>
      <trkpt lat="45.37036" lon="5.8182">
        <ele>1685</ele>
        <time>2022-07-30T10:03:32Z</time>
      </trkpt>
      <trkpt lat="45.37031" lon="5.81821">
        <ele>1686</ele>
        <time>2022-07-30T10:03:43Z</time>
      </trkpt>
      <trkpt lat="45.37028" lon="5.81817">
        <ele>1689</ele>
        <time>2022-07-30T10:04:18Z</time>
      </trkpt>
      <trkpt lat="45.37022" lon="5.81812">
        <ele>1690</ele>
        <time>2022-07-30T10:04:28Z</time>
      </trkpt>
      <trkpt lat="45.37019" lon="5.81809">
        <ele>1691</ele>
        <time>2022-07-30T10:04:39Z</time>
      </trkpt>
      <trkpt lat="45.37017" lon="5.81804">
        <ele>1698</ele>
        <time>2022-07-30T10:05:53Z</time>
      </trkpt>
      <trkpt lat="45.37013" lon="5.81801">
        <ele>1702</ele>
        <time>2022-07-30T10:06:23Z</time>
      </trkpt>
      <trkpt lat="45.37009" lon="5.81796">
        <ele>1706</ele>
        <time>2022-07-30T10:07:13Z</time>
      </trkpt>
      <trkpt lat="45.37004" lon="5.81796">
        <ele>1707</ele>
        <time>2022-07-30T10:07:24Z</time>
      </trkpt>
      <trkpt lat="45.37" lon="5.81791">
        <ele>1710</ele>
        <time>2022-07-30T10:07:46Z</time>
      </trkpt>
      <trkpt lat="45.36994" lon="5.8179">
        <ele>1712</ele>
        <time>2022-07-30T10:08:01Z</time>
      </trkpt>
      <trkpt lat="45.36992" lon="5.81784">
        <ele>1715</ele>
        <time>2022-07-30T10:08:31Z</time>
      </trkpt>
      <trkpt lat="45.36989" lon="5.81778">
        <ele>1719</ele>
        <time>2022-07-30T10:08:51Z</time>
      </trkpt>
      <trkpt lat="45.36988" lon="5.81772">
        <ele>1721</ele>
        <time>2022-07-30T10:09:28Z</time>
      </trkpt>
      <trkpt lat="45.36985" lon="5.81767">
        <ele>1727</ele>
        <time>2022-07-30T10:10:30Z</time>
      </trkpt>
      <trkpt lat="45.36989" lon="5.81763">
        <ele>1731</ele>
        <time>2022-07-30T10:11:10Z</time>
      </trkpt>
      <trkpt lat="45.36994" lon="5.81762">
        <ele>1733</ele>
        <time>2022-07-30T10:11:31Z</time>
      </trkpt>
      <trkpt lat="45.36995" lon="5.81756">
        <ele>1735</ele>
        <time>2022-07-30T10:12:12Z</time>
      </trkpt>
      <trkpt lat="45.36994" lon="5.8175">
        <ele>1737</ele>
        <time>2022-07-30T10:12:27Z</time>
      </trkpt>
      <trkpt lat="45.36989" lon="5.81744">
        <ele>1743</ele>
        <time>2022-07-30T10:13:12Z</time>
      </trkpt>
      <trkpt lat="45.36984" lon="5.81739">
        <ele>1744</ele>
        <time>2022-07-30T10:13:22Z</time>
      </trkpt>
      <trkpt lat="45.36979" lon="5.81737">
        <ele>1744</ele>
        <time>2022-07-30T10:13:26Z</time>
      </trkpt>
      <trkpt lat="45.36975" lon="5.81731">
        <ele>1744</ele>
        <time>2022-07-30T10:13:35Z</time>
      </trkpt>
      <trkpt lat="45.36969" lon="5.81728">
        <ele>1745</ele>
        <time>2022-07-30T10:13:46Z</time>
      </trkpt>
      <trkpt lat="45.36967" lon="5.81722">
        <ele>1748</ele>
        <time>2022-07-30T10:14:02Z</time>
      </trkpt>
      <trkpt lat="45.36967" lon="5.81716">
        <ele>1750</ele>
        <time>2022-07-30T10:14:47Z</time>
      </trkpt>
      <trkpt lat="45.36963" lon="5.81705">
        <ele>1757</ele>
        <time>2022-07-30T10:15:32Z</time>
      </trkpt>
      <trkpt lat="45.3696" lon="5.817">
        <ele>1759</ele>
        <time>2022-07-30T10:15:54Z</time>
      </trkpt>
      <trkpt lat="45.36964" lon="5.81698">
        <ele>1764</ele>
        <time>2022-07-30T10:16:44Z</time>
      </trkpt>
      <trkpt lat="45.36968" lon="5.81699">
        <ele>1767</ele>
        <time>2022-07-30T10:17:09Z</time>
      </trkpt>
      <trkpt lat="45.36973" lon="5.81699">
        <ele>1767</ele>
        <time>2022-07-30T10:17:19Z</time>
      </trkpt>
      <trkpt lat="45.36977" lon="5.81697">
        <ele>1769</ele>
        <time>2022-07-30T10:17:31Z</time>
      </trkpt>
      <trkpt lat="45.36974" lon="5.8169">
        <ele>1771</ele>
        <time>2022-07-30T10:17:41Z</time>
      </trkpt>
      <trkpt lat="45.36968" lon="5.81687">
        <ele>1771</ele>
        <time>2022-07-30T10:17:52Z</time>
      </trkpt>
      <trkpt lat="45.36964" lon="5.81675">
        <ele>1776</ele>
        <time>2022-07-30T10:18:39Z</time>
      </trkpt>
      <trkpt lat="45.36961" lon="5.8167">
        <ele>1779</ele>
        <time>2022-07-30T10:18:59Z</time>
      </trkpt>
      <trkpt lat="45.36958" lon="5.81657">
        <ele>1785</ele>
        <time>2022-07-30T10:20:00Z</time>
      </trkpt>
      <trkpt lat="45.36952" lon="5.81655">
        <ele>1785</ele>
        <time>2022-07-30T10:20:11Z</time>
      </trkpt>
      <trkpt lat="45.3695" lon="5.81649">
        <ele>1787</ele>
        <time>2022-07-30T10:20:31Z</time>
      </trkpt>
      <trkpt lat="45.36951" lon="5.81643">
        <ele>1789</ele>
        <time>2022-07-30T10:20:56Z</time>
      </trkpt>
      <trkpt lat="45.36959" lon="5.81633">
        <ele>1794</ele>
        <time>2022-07-30T10:22:49Z</time>
      </trkpt>
      <trkpt lat="45.36964" lon="5.8163">
        <ele>1801</ele>
        <time>2022-07-30T10:26:44Z</time>
      </trkpt>
      <trkpt lat="45.36967" lon="5.81624">
        <ele>1804</ele>
        <time>2022-07-30T10:27:14Z</time>
      </trkpt>
      <trkpt lat="45.3697" lon="5.81619">
        <ele>1805</ele>
        <time>2022-07-30T10:27:24Z</time>
      </trkpt>
      <trkpt lat="45.36972" lon="5.81614">
        <ele>1807</ele>
        <time>2022-07-30T10:27:34Z</time>
      </trkpt>
      <trkpt lat="45.36975" lon="5.8161">
        <ele>1809</ele>
        <time>2022-07-30T10:27:54Z</time>
      </trkpt>
      <trkpt lat="45.36977" lon="5.81604">
        <ele>1811</ele>
        <time>2022-07-30T10:28:09Z</time>
      </trkpt>
      <trkpt lat="45.36981" lon="5.81603">
        <ele>1814</ele>
        <time>2022-07-30T10:28:32Z</time>
      </trkpt>
      <trkpt lat="45.36983" lon="5.81611">
        <ele>1816</ele>
        <time>2022-07-30T10:28:47Z</time>
      </trkpt>
      <trkpt lat="45.36987" lon="5.8161">
        <ele>1818</ele>
        <time>2022-07-30T10:29:02Z</time>
      </trkpt>
      <trkpt lat="45.36991" lon="5.81606">
        <ele>1822</ele>
        <time>2022-07-30T10:29:22Z</time>
      </trkpt>
      <trkpt lat="45.36993" lon="5.81613">
        <ele>1827</ele>
        <time>2022-07-30T10:29:57Z</time>
      </trkpt>
      <trkpt lat="45.36998" lon="5.81613">
        <ele>1830</ele>
        <time>2022-07-30T10:30:17Z</time>
      </trkpt>
      <trkpt lat="45.37002" lon="5.81611">
        <ele>1834</ele>
        <time>2022-07-30T10:30:50Z</time>
      </trkpt>
      <trkpt lat="45.37007" lon="5.81613">
        <ele>1839</ele>
        <time>2022-07-30T10:31:20Z</time>
      </trkpt>
      <trkpt lat="45.37012" lon="5.81613">
        <ele>1841</ele>
        <time>2022-07-30T10:31:35Z</time>
      </trkpt>
      <trkpt lat="45.37016" lon="5.81615">
        <ele>1845</ele>
        <time>2022-07-30T10:32:05Z</time>
      </trkpt>
      <trkpt lat="45.3702" lon="5.81618">
        <ele>1850</ele>
        <time>2022-07-30T10:32:47Z</time>
      </trkpt>
      <trkpt lat="45.37025" lon="5.81617">
        <ele>1853</ele>
        <time>2022-07-30T10:33:07Z</time>
      </trkpt>
      <trkpt lat="45.3703" lon="5.81614">
        <ele>1856</ele>
        <time>2022-07-30T10:33:27Z</time>
      </trkpt>
      <trkpt lat="45.37034" lon="5.81614">
        <ele>1858</ele>
        <time>2022-07-30T10:33:52Z</time>
      </trkpt>
      <trkpt lat="45.37039" lon="5.81618">
        <ele>1860</ele>
        <time>2022-07-30T10:34:07Z</time>
      </trkpt>
      <trkpt lat="45.37043" lon="5.81624">
        <ele>1865</ele>
        <time>2022-07-30T10:34:38Z</time>
      </trkpt>
      <trkpt lat="45.37046" lon="5.81617">
        <ele>1867</ele>
        <time>2022-07-30T10:34:55Z</time>
      </trkpt>
      <trkpt lat="45.3705" lon="5.8162">
        <ele>1868</ele>
        <time>2022-07-30T10:35:10Z</time>
      </trkpt>
      <trkpt lat="45.37054" lon="5.81619">
        <ele>1871</ele>
        <time>2022-07-30T10:35:30Z</time>
      </trkpt>
      <trkpt lat="45.37059" lon="5.81621">
        <ele>1873</ele>
        <time>2022-07-30T10:35:45Z</time>
      </trkpt>
      <trkpt lat="45.37064" lon="5.81622">
        <ele>1875</ele>
        <time>2022-07-30T10:36:00Z</time>
      </trkpt>
      <trkpt lat="45.37069" lon="5.8162">
        <ele>1876</ele>
        <time>2022-07-30T10:36:20Z</time>
      </trkpt>
      <trkpt lat="45.37072" lon="5.81616">
        <ele>1878</ele>
        <time>2022-07-30T10:36:30Z</time>
      </trkpt>
      <trkpt lat="45.37077" lon="5.81613">
        <ele>1879</ele>
        <time>2022-07-30T10:36:41Z</time>
      </trkpt>
      <trkpt lat="45.37089" lon="5.81598">
        <ele>1882</ele>
        <time>2022-07-30T10:37:13Z</time>
      </trkpt>
      <trkpt lat="45.37101" lon="5.81584">
        <ele>1886</ele>
        <time>2022-07-30T10:37:43Z</time>
      </trkpt>
      <trkpt lat="45.37103" lon="5.81579">
        <ele>1887</ele>
        <time>2022-07-30T10:37:58Z</time>
      </trkpt>
      <trkpt lat="45.37109" lon="5.81566">
        <ele>1892</ele>
        <time>2022-07-30T10:38:33Z</time>
      </trkpt>
      <trkpt lat="45.37111" lon="5.81561">
        <ele>1893</ele>
        <time>2022-07-30T10:38:49Z</time>
      </trkpt>
      <trkpt lat="45.37112" lon="5.81553">
        <ele>1897</ele>
        <time>2022-07-30T10:39:10Z</time>
      </trkpt>
      <trkpt lat="45.37115" lon="5.81549">
        <ele>1899</ele>
        <time>2022-07-30T10:39:25Z</time>
      </trkpt>
      <trkpt lat="45.37116" lon="5.81543">
        <ele>1901</ele>
        <time>2022-07-30T10:39:40Z</time>
      </trkpt>
      <trkpt lat="45.37112" lon="5.81537">
        <ele>1903</ele>
        <time>2022-07-30T10:39:55Z</time>
      </trkpt>
      <trkpt lat="45.37102" lon="5.81528">
        <ele>1907</ele>
        <time>2022-07-30T10:40:25Z</time>
      </trkpt>
      <trkpt lat="45.37101" lon="5.81522">
        <ele>1909</ele>
        <time>2022-07-30T10:40:45Z</time>
      </trkpt>
      <trkpt lat="45.37104" lon="5.81516">
        <ele>1912</ele>
        <time>2022-07-30T10:41:02Z</time>
      </trkpt>
      <trkpt lat="45.37107" lon="5.81512">
        <ele>1914</ele>
        <time>2022-07-30T10:41:18Z</time>
      </trkpt>
      <trkpt lat="45.37108" lon="5.81505">
        <ele>1917</ele>
        <time>2022-07-30T10:41:38Z</time>
      </trkpt>
      <trkpt lat="45.37111" lon="5.815">
        <ele>1919</ele>
        <time>2022-07-30T10:41:58Z</time>
      </trkpt>
      <trkpt lat="45.37112" lon="5.81493">
        <ele>1921</ele>
        <time>2022-07-30T10:42:13Z</time>
      </trkpt>
      <trkpt lat="45.37114" lon="5.81488">
        <ele>1922</ele>
        <time>2022-07-30T10:42:28Z</time>
      </trkpt>
      <trkpt lat="45.37115" lon="5.81481">
        <ele>1925</ele>
        <time>2022-07-30T10:42:43Z</time>
      </trkpt>
      <trkpt lat="45.37114" lon="5.81474">
        <ele>1927</ele>
        <time>2022-07-30T10:42:59Z</time>
      </trkpt>
      <trkpt lat="45.37116" lon="5.81468">
        <ele>1929</ele>
        <time>2022-07-30T10:43:16Z</time>
      </trkpt>
      <trkpt lat="45.37113" lon="5.81453">
        <ele>1934</ele>
        <time>2022-07-30T10:43:46Z</time>
      </trkpt>
      <trkpt lat="45.37111" lon="5.81441">
        <ele>1939</ele>
        <time>2022-07-30T10:44:26Z</time>
      </trkpt>
      <trkpt lat="45.37109" lon="5.81426">
        <ele>1943</ele>
        <time>2022-07-30T10:44:56Z</time>
      </trkpt>
      <trkpt lat="45.37106" lon="5.81418">
        <ele>1946</ele>
        <time>2022-07-30T10:45:13Z</time>
      </trkpt>
      <trkpt lat="45.37103" lon="5.81413">
        <ele>1948</ele>
        <time>2022-07-30T10:45:29Z</time>
      </trkpt>
      <trkpt lat="45.37103" lon="5.81404">
        <ele>1951</ele>
        <time>2022-07-30T10:45:45Z</time>
      </trkpt>
      <trkpt lat="45.37102" lon="5.81398">
        <ele>1953</ele>
        <time>2022-07-30T10:46:00Z</time>
      </trkpt>
      <trkpt lat="45.371" lon="5.81384">
        <ele>1958</ele>
        <time>2022-07-30T10:46:35Z</time>
      </trkpt>
      <trkpt lat="45.37097" lon="5.81378">
        <ele>1960</ele>
        <time>2022-07-30T10:46:50Z</time>
      </trkpt>
      <trkpt lat="45.37097" lon="5.8137">
        <ele>1964</ele>
        <time>2022-07-30T10:47:22Z</time>
      </trkpt>
      <trkpt lat="45.37098" lon="5.81357">
        <ele>1968</ele>
        <time>2022-07-30T10:47:53Z</time>
      </trkpt>
      <trkpt lat="45.37095" lon="5.81353">
        <ele>1971</ele>
        <time>2022-07-30T10:48:03Z</time>
      </trkpt>
      <trkpt lat="45.37094" lon="5.81346">
        <ele>1974</ele>
        <time>2022-07-30T10:48:28Z</time>
      </trkpt>
      <trkpt lat="45.37094" lon="5.81339">
        <ele>1978</ele>
        <time>2022-07-30T10:48:53Z</time>
      </trkpt>
      <trkpt lat="45.3709" lon="5.81336">
        <ele>1979</ele>
        <time>2022-07-30T10:49:03Z</time>
      </trkpt>
      <trkpt lat="45.37083" lon="5.81335">
        <ele>1980</ele>
        <time>2022-07-30T10:49:12Z</time>
      </trkpt>
      <trkpt lat="45.37068" lon="5.81319">
        <ele>1983</ele>
        <time>2022-07-30T10:49:48Z</time>
      </trkpt>
      <trkpt lat="45.37072" lon="5.81318">
        <ele>1984</ele>
        <time>2022-07-30T10:50:03Z</time>
      </trkpt>
      <trkpt lat="45.37073" lon="5.81311">
        <ele>1987</ele>
        <time>2022-07-30T10:50:18Z</time>
      </trkpt>
      <trkpt lat="45.37072" lon="5.81305">
        <ele>1989</ele>
        <time>2022-07-30T10:50:28Z</time>
      </trkpt>
      <trkpt lat="45.37074" lon="5.81299">
        <ele>1990</ele>
        <time>2022-07-30T10:50:43Z</time>
      </trkpt>
      <trkpt lat="45.37071" lon="5.81291">
        <ele>1993</ele>
        <time>2022-07-30T10:51:04Z</time>
      </trkpt>
      <trkpt lat="45.37075" lon="5.81289">
        <ele>1995</ele>
        <time>2022-07-30T10:51:19Z</time>
      </trkpt>
      <trkpt lat="45.37078" lon="5.81284">
        <ele>1998</ele>
        <time>2022-07-30T10:51:36Z</time>
      </trkpt>
      <trkpt lat="45.37074" lon="5.81278">
        <ele>2001</ele>
        <time>2022-07-30T10:51:53Z</time>
      </trkpt>
      <trkpt lat="45.37074" lon="5.81264">
        <ele>2004</ele>
        <time>2022-07-30T10:52:23Z</time>
      </trkpt>
      <trkpt lat="45.3707" lon="5.81258">
        <ele>2008</ele>
        <time>2022-07-30T10:52:48Z</time>
      </trkpt>
      <trkpt lat="45.37067" lon="5.81252">
        <ele>2011</ele>
        <time>2022-07-30T10:53:09Z</time>
      </trkpt>
      <trkpt lat="45.37066" lon="5.81243">
        <ele>2014</ele>
        <time>2022-07-30T10:53:36Z</time>
      </trkpt>
      <trkpt lat="45.37062" lon="5.81237">
        <ele>2015</ele>
        <time>2022-07-30T10:53:53Z</time>
      </trkpt>
      <trkpt lat="45.37063" lon="5.8123">
        <ele>2016</ele>
        <time>2022-07-30T10:54:13Z</time>
      </trkpt>
      <trkpt lat="45.37064" lon="5.81223">
        <ele>2019</ele>
        <time>2022-07-30T10:54:28Z</time>
      </trkpt>
      <trkpt lat="45.37058" lon="5.81216">
        <ele>2022</ele>
        <time>2022-07-30T10:54:43Z</time>
      </trkpt>
      <trkpt lat="45.37052" lon="5.81214">
        <ele>2023</ele>
        <time>2022-07-30T10:54:58Z</time>
      </trkpt>
      <trkpt lat="45.3705" lon="5.81209">
        <ele>2026</ele>
        <time>2022-07-30T10:55:18Z</time>
      </trkpt>
      <trkpt lat="45.37044" lon="5.81207">
        <ele>2028</ele>
        <time>2022-07-30T10:55:40Z</time>
      </trkpt>
      <trkpt lat="45.3704" lon="5.81202">
        <ele>2028</ele>
        <time>2022-07-30T10:55:57Z</time>
      </trkpt>
      <trkpt lat="45.37043" lon="5.81204">
        <ele>2025</ele>
        <time>2022-07-30T10:59:24Z</time>
      </trkpt>
      <trkpt lat="45.37048" lon="5.81206">
        <ele>2025</ele>
        <time>2022-07-30T10:59:50Z</time>
      </trkpt>
      <trkpt lat="45.37052" lon="5.81207">
        <ele>2023</ele>
        <time>2022-07-30T11:00:00Z</time>
      </trkpt>
      <trkpt lat="45.37055" lon="5.81211">
        <ele>2023</ele>
        <time>2022-07-30T11:00:10Z</time>
      </trkpt>
      <trkpt lat="45.3706" lon="5.81208">
        <ele>2021</ele>
        <time>2022-07-30T11:00:20Z</time>
      </trkpt>
      <trkpt lat="45.37065" lon="5.81207">
        <ele>2021</ele>
        <time>2022-07-30T11:00:25Z</time>
      </trkpt>
      <trkpt lat="45.37072" lon="5.81209">
        <ele>2021</ele>
        <time>2022-07-30T11:00:33Z</time>
      </trkpt>
      <trkpt lat="45.37077" lon="5.81208">
        <ele>2022</ele>
        <time>2022-07-30T11:00:40Z</time>
      </trkpt>
      <trkpt lat="45.37079" lon="5.81207">
        <ele>2021</ele>
        <time>2022-07-30T12:07:24Z</time>
      </trkpt>
      <trkpt lat="45.37079" lon="5.81198">
        <ele>2022</ele>
        <time>2022-07-30T12:07:29Z</time>
      </trkpt>
      <trkpt lat="45.37081" lon="5.81202">
        <ele>2023</ele>
        <time>2022-07-30T12:07:52Z</time>
      </trkpt>
      <trkpt lat="45.37082" lon="5.8121">
        <ele>2022</ele>
        <time>2022-07-30T12:08:00Z</time>
      </trkpt>
      <trkpt lat="45.37079" lon="5.81209">
        <ele>2022</ele>
        <time>2022-07-30T12:09:30Z</time>
      </trkpt>
      <trkpt lat="45.37073" lon="5.81207">
        <ele>2023</ele>
        <time>2022-07-30T12:09:40Z</time>
      </trkpt>
      <trkpt lat="45.37065" lon="5.81206">
        <ele>2024</ele>
        <time>2022-07-30T12:09:50Z</time>
      </trkpt>
      <trkpt lat="45.37058" lon="5.81206">
        <ele>2025</ele>
        <time>2022-07-30T12:10:01Z</time>
      </trkpt>
      <trkpt lat="45.37053" lon="5.81205">
        <ele>2026</ele>
        <time>2022-07-30T12:10:11Z</time>
      </trkpt>
      <trkpt lat="45.37047" lon="5.81204">
        <ele>2028</ele>
        <time>2022-07-30T12:10:21Z</time>
      </trkpt>
      <trkpt lat="45.37043" lon="5.81203">
        <ele>2027</ele>
        <time>2022-07-30T12:10:31Z</time>
      </trkpt>
      <trkpt lat="45.37038" lon="5.81205">
        <ele>2027</ele>
        <time>2022-07-30T12:13:01Z</time>
      </trkpt>
      <trkpt lat="45.37045" lon="5.81211">
        <ele>2027</ele>
        <time>2022-07-30T12:13:16Z</time>
      </trkpt>
      <trkpt lat="45.37048" lon="5.81206">
        <ele>2026</ele>
        <time>2022-07-30T12:13:20Z</time>
      </trkpt>
      <trkpt lat="45.37044" lon="5.81209">
        <ele>2027</ele>
        <time>2022-07-30T12:13:46Z</time>
      </trkpt>
      <trkpt lat="45.36423" lon="5.82541">
        <ele>1218</ele>
        <time>2022-07-30T14:27:22Z</time>
      </trkpt>
      <trkpt lat="45.3643" lon="5.82549">
        <ele>1219</ele>
        <time>2022-07-30T14:27:33Z</time>
      </trkpt>
      <trkpt lat="45.36437" lon="5.82547">
        <ele>1219</ele>
        <time>2022-07-30T14:27:43Z</time>
      </trkpt>
      <trkpt lat="45.36443" lon="5.8255">
        <ele>1218</ele>
        <time>2022-07-30T14:28:00Z</time>
      </trkpt>
      <trkpt lat="45.36453" lon="5.82553">
        <ele>1218</ele>
        <time>2022-07-30T14:28:09Z</time>
      </trkpt>
      <trkpt lat="45.36457" lon="5.82544">
        <ele>1219</ele>
        <time>2022-07-30T14:28:18Z</time>
      </trkpt>
      <trkpt lat="45.36467" lon="5.82549">
        <ele>1217</ele>
        <time>2022-07-30T14:28:31Z</time>
      </trkpt>
      <trkpt lat="45.36471" lon="5.82555">
        <ele>1217</ele>
        <time>2022-07-30T14:28:36Z</time>
      </trkpt>
      <trkpt lat="45.36475" lon="5.8255">
        <ele>1217</ele>
        <time>2022-07-30T14:28:42Z</time>
      </trkpt>
      <trkpt lat="45.36476" lon="5.82559">
        <ele>1217</ele>
        <time>2022-07-30T14:28:50Z</time>
      </trkpt>
      <trkpt lat="45.3647" lon="5.82564">
        <ele>1217</ele>
        <time>2022-07-30T14:28:58Z</time>
      </trkpt>
      <trkpt lat="45.36466" lon="5.82567">
        <ele>1217</ele>
        <time>2022-07-30T14:29:02Z</time>
      </trkpt>
      <trkpt lat="45.36465" lon="5.82579">
        <ele>1216</ele>
        <time>2022-07-30T14:29:15Z</time>
      </trkpt>
      <trkpt lat="45.36463" lon="5.82586">
        <ele>1216</ele>
        <time>2022-07-30T14:29:23Z</time>
      </trkpt>
      <trkpt lat="45.36467" lon="5.82598">
        <ele>1217</ele>
        <time>2022-07-30T14:29:33Z</time>
      </trkpt>
      <trkpt lat="45.36469" lon="5.82605">
        <ele>1219</ele>
        <time>2022-07-30T14:29:45Z</time>
      </trkpt>
      <trkpt lat="45.36467" lon="5.82618">
        <ele>1219</ele>
        <time>2022-07-30T14:29:55Z</time>
      </trkpt>
      <trkpt lat="45.36463" lon="5.82623">
        <ele>1218</ele>
        <time>2022-07-30T14:30:00Z</time>
      </trkpt>
      <trkpt lat="45.36458" lon="5.82636">
        <ele>1219</ele>
        <time>2022-07-30T14:30:14Z</time>
      </trkpt>
      <trkpt lat="45.36455" lon="5.82642">
        <ele>1219</ele>
        <time>2022-07-30T14:30:21Z</time>
      </trkpt>
      <trkpt lat="45.36453" lon="5.82649">
        <ele>1219</ele>
        <time>2022-07-30T14:30:25Z</time>
      </trkpt>
      <trkpt lat="45.36447" lon="5.8266">
        <ele>1220</ele>
        <time>2022-07-30T14:30:37Z</time>
      </trkpt>
      <trkpt lat="45.36444" lon="5.8267">
        <ele>1220</ele>
        <time>2022-07-30T14:30:47Z</time>
      </trkpt>
      <trkpt lat="45.36441" lon="5.82681">
        <ele>1219</ele>
        <time>2022-07-30T14:30:56Z</time>
      </trkpt>
      <trkpt lat="45.36439" lon="5.82687">
        <ele>1218</ele>
        <time>2022-07-30T14:31:00Z</time>
      </trkpt>
      <trkpt lat="45.36436" lon="5.82695">
        <ele>1219</ele>
        <time>2022-07-30T14:31:11Z</time>
      </trkpt>
      <trkpt lat="45.36437" lon="5.82702">
        <ele>1220</ele>
        <time>2022-07-30T14:31:15Z</time>
      </trkpt>
      <trkpt lat="45.36436" lon="5.82708">
        <ele>1219</ele>
        <time>2022-07-30T14:31:22Z</time>
      </trkpt>
      <trkpt lat="45.36435" lon="5.82715">
        <ele>1219</ele>
        <time>2022-07-30T14:31:27Z</time>
      </trkpt>
      <trkpt lat="45.36432" lon="5.82721">
        <ele>1219</ele>
        <time>2022-07-30T14:31:32Z</time>
      </trkpt>
      <trkpt lat="45.36432" lon="5.82729">
        <ele>1219</ele>
        <time>2022-07-30T14:31:40Z</time>
      </trkpt>
      <trkpt lat="45.3643" lon="5.82735">
        <ele>1218</ele>
        <time>2022-07-30T14:31:45Z</time>
      </trkpt>
      <trkpt lat="45.36428" lon="5.82742">
        <ele>1218</ele>
        <time>2022-07-30T14:31:49Z</time>
      </trkpt>
      <trkpt lat="45.36428" lon="5.8276">
        <ele>1218</ele>
        <time>2022-07-30T14:32:03Z</time>
      </trkpt>
      <trkpt lat="45.36425" lon="5.82766">
        <ele>1217</ele>
        <time>2022-07-30T14:32:08Z</time>
      </trkpt>
      <trkpt lat="45.36422" lon="5.82778">
        <ele>1216</ele>
        <time>2022-07-30T14:32:20Z</time>
      </trkpt>
      <trkpt lat="45.36421" lon="5.82785">
        <ele>1216</ele>
        <time>2022-07-30T14:32:25Z</time>
      </trkpt>
      <trkpt lat="45.36416" lon="5.82788">
        <ele>1217</ele>
        <time>2022-07-30T14:32:34Z</time>
      </trkpt>
      <trkpt lat="45.36416" lon="5.82797">
        <ele>1217</ele>
        <time>2022-07-30T14:32:41Z</time>
      </trkpt>
      <trkpt lat="45.36415" lon="5.82805">
        <ele>1218</ele>
        <time>2022-07-30T14:32:47Z</time>
      </trkpt>
      <trkpt lat="45.36409" lon="5.8281">
        <ele>1218</ele>
        <time>2022-07-30T14:32:56Z</time>
      </trkpt>
      <trkpt lat="45.36408" lon="5.82817">
        <ele>1217</ele>
        <time>2022-07-30T14:33:02Z</time>
      </trkpt>
      <trkpt lat="45.36407" lon="5.82825">
        <ele>1217</ele>
        <time>2022-07-30T14:33:06Z</time>
      </trkpt>
      <trkpt lat="45.36412" lon="5.82845">
        <ele>1220</ele>
        <time>2022-07-30T14:33:29Z</time>
      </trkpt>
      <trkpt lat="45.36414" lon="5.82852">
        <ele>1220</ele>
        <time>2022-07-30T14:33:34Z</time>
      </trkpt>
      <trkpt lat="45.36415" lon="5.82861">
        <ele>1220</ele>
        <time>2022-07-30T14:33:42Z</time>
      </trkpt>
      <trkpt lat="45.36415" lon="5.82869">
        <ele>1220</ele>
        <time>2022-07-30T14:33:48Z</time>
      </trkpt>
      <trkpt lat="45.36415" lon="5.82881">
        <ele>1219</ele>
        <time>2022-07-30T14:33:53Z</time>
      </trkpt>
      <trkpt lat="45.36422" lon="5.82878">
        <ele>1219</ele>
        <time>2022-07-30T14:33:59Z</time>
      </trkpt>
      <trkpt lat="45.36425" lon="5.82887">
        <ele>1219</ele>
        <time>2022-07-30T14:34:09Z</time>
      </trkpt>
      <trkpt lat="45.36431" lon="5.82891">
        <ele>1218</ele>
        <time>2022-07-30T14:34:13Z</time>
      </trkpt>
      <trkpt lat="45.36444" lon="5.82904">
        <ele>1219</ele>
        <time>2022-07-30T14:34:29Z</time>
      </trkpt>
      <trkpt lat="45.36457" lon="5.8291">
        <ele>1219</ele>
        <time>2022-07-30T14:34:44Z</time>
      </trkpt>
      <trkpt lat="45.36463" lon="5.8291">
        <ele>1220</ele>
        <time>2022-07-30T14:34:54Z</time>
      </trkpt>
      <trkpt lat="45.36468" lon="5.82916">
        <ele>1220</ele>
        <time>2022-07-30T14:34:58Z</time>
      </trkpt>
      <trkpt lat="45.36478" lon="5.82921">
        <ele>1219</ele>
        <time>2022-07-30T14:35:12Z</time>
      </trkpt>
      <trkpt lat="45.36481" lon="5.82926">
        <ele>1219</ele>
        <time>2022-07-30T14:35:24Z</time>
      </trkpt>
      <trkpt lat="45.36483" lon="5.82935">
        <ele>1221</ele>
        <time>2022-07-30T14:36:36Z</time>
      </trkpt>
      <trkpt lat="45.36485" lon="5.82943">
        <ele>1220</ele>
        <time>2022-07-30T14:36:58Z</time>
      </trkpt>
      <trkpt lat="45.36491" lon="5.82955">
        <ele>1219</ele>
        <time>2022-07-30T14:37:07Z</time>
      </trkpt>
      <trkpt lat="45.36491" lon="5.82963">
        <ele>1219</ele>
        <time>2022-07-30T14:37:11Z</time>
      </trkpt>
      <trkpt lat="45.36488" lon="5.82964">
        <ele>1215</ele>
        <time>2022-07-30T14:38:18Z</time>
      </trkpt>
      <trkpt lat="45.36483" lon="5.82966">
        <ele>1215</ele>
        <time>2022-07-30T14:38:24Z</time>
      </trkpt>
      <trkpt lat="45.36488" lon="5.82971">
        <ele>1217</ele>
        <time>2022-07-30T14:39:17Z</time>
      </trkpt>
      <trkpt lat="45.36489" lon="5.82978">
        <ele>1218</ele>
        <time>2022-07-30T14:40:08Z</time>
      </trkpt>
      <trkpt lat="45.36491" lon="5.82979">
        <ele>1216</ele>
        <time>2022-07-30T14:40:31Z</time>
      </trkpt>
      <trkpt lat="45.36491" lon="5.82987">
        <ele>1216</ele>
        <time>2022-07-30T14:40:38Z</time>
      </trkpt>
      <trkpt lat="45.36487" lon="5.82998">
        <ele>1215</ele>
        <time>2022-07-30T14:40:52Z</time>
      </trkpt>
      <trkpt lat="45.36489" lon="5.83009">
        <ele>1214</ele>
        <time>2022-07-30T14:41:13Z</time>
      </trkpt>
      <trkpt lat="45.36495" lon="5.83008">
        <ele>1213</ele>
        <time>2022-07-30T14:41:20Z</time>
      </trkpt>
      <trkpt lat="45.36497" lon="5.83017">
        <ele>1212</ele>
        <time>2022-07-30T14:41:31Z</time>
      </trkpt>
      <trkpt lat="45.36497" lon="5.83028">
        <ele>1211</ele>
        <time>2022-07-30T14:41:36Z</time>
      </trkpt>
      <trkpt lat="45.36503" lon="5.83035">
        <ele>1208</ele>
        <time>2022-07-30T14:41:50Z</time>
      </trkpt>
      <trkpt lat="45.36503" lon="5.83068">
        <ele>1202</ele>
        <time>2022-07-30T14:42:15Z</time>
      </trkpt>
      <trkpt lat="45.36507" lon="5.83073">
        <ele>1201</ele>
        <time>2022-07-30T14:42:20Z</time>
      </trkpt>
      <trkpt lat="45.36511" lon="5.83094">
        <ele>1196</ele>
        <time>2022-07-30T14:42:36Z</time>
      </trkpt>
      <trkpt lat="45.36516" lon="5.83102">
        <ele>1194</ele>
        <time>2022-07-30T14:42:46Z</time>
      </trkpt>
      <trkpt lat="45.36521" lon="5.83122">
        <ele>1191</ele>
        <time>2022-07-30T14:43:02Z</time>
      </trkpt>
      <trkpt lat="45.36528" lon="5.83126">
        <ele>1190</ele>
        <time>2022-07-30T14:43:07Z</time>
      </trkpt>
      <trkpt lat="45.36531" lon="5.83137">
        <ele>1187</ele>
        <time>2022-07-30T14:43:19Z</time>
      </trkpt>
      <trkpt lat="45.36532" lon="5.8315">
        <ele>1184</ele>
        <time>2022-07-30T14:43:31Z</time>
      </trkpt>
      <trkpt lat="45.36535" lon="5.83157">
        <ele>1183</ele>
        <time>2022-07-30T14:43:37Z</time>
      </trkpt>
      <trkpt lat="45.36534" lon="5.83164">
        <ele>1181</ele>
        <time>2022-07-30T14:43:42Z</time>
      </trkpt>
      <trkpt lat="45.36535" lon="5.83175">
        <ele>1180</ele>
        <time>2022-07-30T14:43:47Z</time>
      </trkpt>
      <trkpt lat="45.36538" lon="5.83181">
        <ele>1180</ele>
        <time>2022-07-30T14:43:50Z</time>
      </trkpt>
      <trkpt lat="45.36542" lon="5.83186">
        <ele>1179</ele>
        <time>2022-07-30T14:43:55Z</time>
      </trkpt>
      <trkpt lat="45.36543" lon="5.83197">
        <ele>1177</ele>
        <time>2022-07-30T14:44:03Z</time>
      </trkpt>
      <trkpt lat="45.36541" lon="5.8321">
        <ele>1176</ele>
        <time>2022-07-30T14:44:11Z</time>
      </trkpt>
      <trkpt lat="45.36544" lon="5.83218">
        <ele>1175</ele>
        <time>2022-07-30T14:44:15Z</time>
      </trkpt>
      <trkpt lat="45.36545" lon="5.83229">
        <ele>1174</ele>
        <time>2022-07-30T14:44:21Z</time>
      </trkpt>
      <trkpt lat="45.36548" lon="5.83236">
        <ele>1173</ele>
        <time>2022-07-30T14:44:27Z</time>
      </trkpt>
      <trkpt lat="45.36557" lon="5.83241">
        <ele>1171</ele>
        <time>2022-07-30T14:44:36Z</time>
      </trkpt>
      <trkpt lat="45.36563" lon="5.83257">
        <ele>1169</ele>
        <time>2022-07-30T14:44:46Z</time>
      </trkpt>
      <trkpt lat="45.36572" lon="5.83259">
        <ele>1168</ele>
        <time>2022-07-30T14:44:53Z</time>
      </trkpt>
      <trkpt lat="45.36576" lon="5.83269">
        <ele>1167</ele>
        <time>2022-07-30T14:44:57Z</time>
      </trkpt>
      <trkpt lat="45.36583" lon="5.83272">
        <ele>1167</ele>
        <time>2022-07-30T14:45:04Z</time>
      </trkpt>
      <trkpt lat="45.36593" lon="5.83289">
        <ele>1164</ele>
        <time>2022-07-30T14:45:17Z</time>
      </trkpt>
      <trkpt lat="45.36596" lon="5.83291">
        <ele>1163</ele>
        <time>2022-07-30T14:45:22Z</time>
      </trkpt>
      <trkpt lat="45.36601" lon="5.83295">
        <ele>1162</ele>
        <time>2022-07-30T14:45:26Z</time>
      </trkpt>
      <trkpt lat="45.36626" lon="5.83337">
        <ele>1156</ele>
        <time>2022-07-30T14:45:59Z</time>
      </trkpt>
      <trkpt lat="45.36628" lon="5.83343">
        <ele>1156</ele>
        <time>2022-07-30T14:46:04Z</time>
      </trkpt>
      <trkpt lat="45.36625" lon="5.83346">
        <ele>1156</ele>
        <time>2022-07-30T14:46:08Z</time>
      </trkpt>
      <trkpt lat="45.36624" lon="5.83355">
        <ele>1155</ele>
        <time>2022-07-30T14:46:13Z</time>
      </trkpt>
      <trkpt lat="45.36615" lon="5.83375">
        <ele>1154</ele>
        <time>2022-07-30T14:46:29Z</time>
      </trkpt>
      <trkpt lat="45.36606" lon="5.83382">
        <ele>1152</ele>
        <time>2022-07-30T14:46:37Z</time>
      </trkpt>
      <trkpt lat="45.36584" lon="5.83386">
        <ele>1150</ele>
        <time>2022-07-30T14:46:57Z</time>
      </trkpt>
      <trkpt lat="45.36579" lon="5.83389">
        <ele>1150</ele>
        <time>2022-07-30T14:47:02Z</time>
      </trkpt>
      <trkpt lat="45.36566" lon="5.83393">
        <ele>1149</ele>
        <time>2022-07-30T14:47:14Z</time>
      </trkpt>
      <trkpt lat="45.36562" lon="5.83396">
        <ele>1148</ele>
        <time>2022-07-30T14:47:19Z</time>
      </trkpt>
      <trkpt lat="45.36559" lon="5.83405">
        <ele>1147</ele>
        <time>2022-07-30T14:47:52Z</time>
      </trkpt>
      <trkpt lat="45.36554" lon="5.83401">
        <ele>1146</ele>
        <time>2022-07-30T14:48:49Z</time>
      </trkpt>
      <trkpt lat="45.36548" lon="5.83405">
        <ele>1145</ele>
        <time>2022-07-30T14:48:56Z</time>
      </trkpt>
      <trkpt lat="45.36544" lon="5.83407">
        <ele>1145</ele>
        <time>2022-07-30T14:49:01Z</time>
      </trkpt>
      <trkpt lat="45.36542" lon="5.834">
        <ele>1144</ele>
        <time>2022-07-30T14:49:11Z</time>
      </trkpt>
      <trkpt lat="45.36535" lon="5.83404">
        <ele>1145</ele>
        <time>2022-07-30T14:49:35Z</time>
      </trkpt>
      <trkpt lat="45.36535" lon="5.83408">
        <ele>1144</ele>
        <time>2022-07-30T14:50:12Z</time>
      </trkpt>
      <trkpt lat="45.36542" lon="5.8341">
        <ele>1144</ele>
        <time>2022-07-30T14:50:22Z</time>
      </trkpt>
      <trkpt lat="45.36538" lon="5.83408">
        <ele>1144</ele>
        <time>2022-07-30T14:50:51Z</time>
      </trkpt>
      <trkpt lat="45.36539" lon="5.83413">
        <ele>1143</ele>
        <time>2022-07-30T14:51:35Z</time>
      </trkpt>
      <trkpt lat="45.36536" lon="5.83407">
        <ele>1143</ele>
        <time>2022-07-30T14:52:27Z</time>
      </trkpt>
      <trkpt lat="45.36536" lon="5.83398">
        <ele>1143</ele>
        <time>2022-07-30T14:52:35Z</time>
      </trkpt>
      <trkpt lat="45.36527" lon="5.83397">
        <ele>1143</ele>
        <time>2022-07-30T14:52:48Z</time>
      </trkpt>
      <trkpt lat="45.36415" lon="5.83304">
        <ele>1138</ele>
        <time>2022-07-30T14:53:03Z</time>
      </trkpt>
      <trkpt lat="45.3639" lon="5.83269">
        <ele>1135</ele>
        <time>2022-07-30T14:53:06Z</time>
      </trkpt>
      <trkpt lat="45.36381" lon="5.83248">
        <ele>1133</ele>
        <time>2022-07-30T14:53:08Z</time>
      </trkpt>
      <trkpt lat="45.36368" lon="5.83194">
        <ele>1130</ele>
        <time>2022-07-30T14:53:12Z</time>
      </trkpt>
      <trkpt lat="45.36204" lon="5.83014">
        <ele>1115</ele>
        <time>2022-07-30T14:53:30Z</time>
      </trkpt>
      <trkpt lat="45.3618" lon="5.83002">
        <ele>1112</ele>
        <time>2022-07-30T14:53:32Z</time>
      </trkpt>
      <trkpt lat="45.36106" lon="5.82988">
        <ele>1106</ele>
        <time>2022-07-30T14:53:38Z</time>
      </trkpt>
      <trkpt lat="45.36093" lon="5.82987">
        <ele>1106</ele>
        <time>2022-07-30T14:53:39Z</time>
      </trkpt>
      <trkpt lat="45.36028" lon="5.82978">
        <ele>1098</ele>
        <time>2022-07-30T14:53:44Z</time>
      </trkpt>
      <trkpt lat="45.3598" lon="5.82964">
        <ele>1091</ele>
        <time>2022-07-30T14:53:48Z</time>
      </trkpt>
      <trkpt lat="45.35951" lon="5.82969">
        <ele>1087</ele>
        <time>2022-07-30T14:53:51Z</time>
      </trkpt>
      <trkpt lat="45.35941" lon="5.82969">
        <ele>1085</ele>
        <time>2022-07-30T14:53:52Z</time>
      </trkpt>
      <trkpt lat="45.35932" lon="5.82966">
        <ele>1085</ele>
        <time>2022-07-30T14:53:53Z</time>
      </trkpt>
      <trkpt lat="45.35921" lon="5.82967">
        <ele>1083</ele>
        <time>2022-07-30T14:53:54Z</time>
      </trkpt>
      <trkpt lat="45.35882" lon="5.82998">
        <ele>1076</ele>
        <time>2022-07-30T14:53:59Z</time>
      </trkpt>
      <trkpt lat="45.35874" lon="5.82996">
        <ele>1075</ele>
        <time>2022-07-30T14:54:00Z</time>
      </trkpt>
      <trkpt lat="45.35864" lon="5.82991">
        <ele>1073</ele>
        <time>2022-07-30T14:54:01Z</time>
      </trkpt>
      <trkpt lat="45.35829" lon="5.82944">
        <ele>1067</ele>
        <time>2022-07-30T14:54:06Z</time>
      </trkpt>
      <trkpt lat="45.3582" lon="5.82933">
        <ele>1067</ele>
        <time>2022-07-30T14:54:07Z</time>
      </trkpt>
      <trkpt lat="45.35803" lon="5.82887">
        <ele>1064</ele>
        <time>2022-07-30T14:54:10Z</time>
      </trkpt>
      <trkpt lat="45.35796" lon="5.82852">
        <ele>1061</ele>
        <time>2022-07-30T14:54:12Z</time>
      </trkpt>
      <trkpt lat="45.35786" lon="5.82767">
        <ele>1053</ele>
        <time>2022-07-30T14:54:17Z</time>
      </trkpt>
      <trkpt lat="45.35767" lon="5.82724">
        <ele>1049</ele>
        <time>2022-07-30T14:54:20Z</time>
      </trkpt>
      <trkpt lat="45.35759" lon="5.82711">
        <ele>1048</ele>
        <time>2022-07-30T14:54:21Z</time>
      </trkpt>
      <trkpt lat="45.35751" lon="5.82697">
        <ele>1048</ele>
        <time>2022-07-30T14:54:22Z</time>
      </trkpt>
      <trkpt lat="45.35725" lon="5.82658">
        <ele>1044</ele>
        <time>2022-07-30T14:54:25Z</time>
      </trkpt>
      <trkpt lat="45.35708" lon="5.82638">
        <ele>1041</ele>
        <time>2022-07-30T14:54:27Z</time>
      </trkpt>
      <trkpt lat="45.35703" lon="5.82626">
        <ele>1039</ele>
        <time>2022-07-30T14:54:28Z</time>
      </trkpt>
      <trkpt lat="45.35701" lon="5.82612">
        <ele>1038</ele>
        <time>2022-07-30T14:54:29Z</time>
      </trkpt>
      <trkpt lat="45.35703" lon="5.82575">
        <ele>1034</ele>
        <time>2022-07-30T14:54:32Z</time>
      </trkpt>
      <trkpt lat="45.35702" lon="5.82564">
        <ele>1032</ele>
        <time>2022-07-30T14:54:33Z</time>
      </trkpt>
      <trkpt lat="45.35697" lon="5.82556">
        <ele>1031</ele>
        <time>2022-07-30T14:54:34Z</time>
      </trkpt>
      <trkpt lat="45.35691" lon="5.82551">
        <ele>1030</ele>
        <time>2022-07-30T14:54:35Z</time>
      </trkpt>
      <trkpt lat="45.35682" lon="5.82551">
        <ele>1030</ele>
        <time>2022-07-30T14:54:36Z</time>
      </trkpt>
      <trkpt lat="45.35664" lon="5.82551">
        <ele>1028</ele>
        <time>2022-07-30T14:54:38Z</time>
      </trkpt>
      <trkpt lat="45.35644" lon="5.82543">
        <ele>1026</ele>
        <time>2022-07-30T14:54:40Z</time>
      </trkpt>
      <trkpt lat="45.35585" lon="5.82497">
        <ele>1019</ele>
        <time>2022-07-30T14:54:46Z</time>
      </trkpt>
      <trkpt lat="45.35563" lon="5.82484">
        <ele>1017</ele>
        <time>2022-07-30T14:54:48Z</time>
      </trkpt>
      <trkpt lat="45.35552" lon="5.82474">
        <ele>1016</ele>
        <time>2022-07-30T14:54:49Z</time>
      </trkpt>
      <trkpt lat="45.35542" lon="5.82464">
        <ele>1016</ele>
        <time>2022-07-30T14:54:50Z</time>
      </trkpt>
      <trkpt lat="45.35426" lon="5.82343">
        <ele>1000</ele>
        <time>2022-07-30T14:55:01Z</time>
      </trkpt>
      <trkpt lat="45.35402" lon="5.82304">
        <ele>996</ele>
        <time>2022-07-30T14:55:04Z</time>
      </trkpt>
      <trkpt lat="45.35394" lon="5.82291">
        <ele>996</ele>
        <time>2022-07-30T14:55:05Z</time>
      </trkpt>
      <trkpt lat="45.35378" lon="5.82268">
        <ele>993</ele>
        <time>2022-07-30T14:55:07Z</time>
      </trkpt>
      <trkpt lat="45.35353" lon="5.82254">
        <ele>990</ele>
        <time>2022-07-30T14:55:09Z</time>
      </trkpt>
      <trkpt lat="45.35303" lon="5.82243">
        <ele>985</ele>
        <time>2022-07-30T14:55:13Z</time>
      </trkpt>
      <trkpt lat="45.35291" lon="5.82237">
        <ele>983</ele>
        <time>2022-07-30T14:55:14Z</time>
      </trkpt>
      <trkpt lat="45.35258" lon="5.82201">
        <ele>978</ele>
        <time>2022-07-30T14:55:18Z</time>
      </trkpt>
      <trkpt lat="45.35249" lon="5.82194">
        <ele>978</ele>
        <time>2022-07-30T14:55:19Z</time>
      </trkpt>
      <trkpt lat="45.35227" lon="5.82185">
        <ele>976</ele>
        <time>2022-07-30T14:55:21Z</time>
      </trkpt>
      <trkpt lat="45.35143" lon="5.82068">
        <ele>965</ele>
        <time>2022-07-30T14:55:30Z</time>
      </trkpt>
      <trkpt lat="45.35128" lon="5.82038">
        <ele>962</ele>
        <time>2022-07-30T14:55:32Z</time>
      </trkpt>
      <trkpt lat="45.35122" lon="5.82021">
        <ele>962</ele>
        <time>2022-07-30T14:55:33Z</time>
      </trkpt>
      <trkpt lat="45.351" lon="5.81964">
        <ele>956</ele>
        <time>2022-07-30T14:55:37Z</time>
      </trkpt>
      <trkpt lat="45.35092" lon="5.81955">
        <ele>955</ele>
        <time>2022-07-30T14:55:38Z</time>
      </trkpt>
      <trkpt lat="45.35081" lon="5.81949">
        <ele>954</ele>
        <time>2022-07-30T14:55:39Z</time>
      </trkpt>
      <trkpt lat="45.34991" lon="5.81943">
        <ele>947</ele>
        <time>2022-07-30T14:55:47Z</time>
      </trkpt>
      <trkpt lat="45.3498" lon="5.81938">
        <ele>947</ele>
        <time>2022-07-30T14:55:48Z</time>
      </trkpt>
      <trkpt lat="45.34883" lon="5.81896">
        <ele>942</ele>
        <time>2022-07-30T14:55:56Z</time>
      </trkpt>
      <trkpt lat="45.34864" lon="5.81874">
        <ele>940</ele>
        <time>2022-07-30T14:55:58Z</time>
      </trkpt>
      <trkpt lat="45.34774" lon="5.81723">
        <ele>931</ele>
        <time>2022-07-30T14:56:09Z</time>
      </trkpt>
      <trkpt lat="45.34753" lon="5.81707">
        <ele>929</ele>
        <time>2022-07-30T14:56:11Z</time>
      </trkpt>
      <trkpt lat="45.34709" lon="5.81693">
        <ele>924</ele>
        <time>2022-07-30T14:56:15Z</time>
      </trkpt>
      <trkpt lat="45.34695" lon="5.81691">
        <ele>924</ele>
        <time>2022-07-30T14:56:16Z</time>
      </trkpt>
      <trkpt lat="45.34656" lon="5.81682">
        <ele>921</ele>
        <time>2022-07-30T14:56:20Z</time>
      </trkpt>
      <trkpt lat="45.34593" lon="5.81692">
        <ele>918</ele>
        <time>2022-07-30T14:56:27Z</time>
      </trkpt>
      <trkpt lat="45.34588" lon="5.8169">
        <ele>918</ele>
        <time>2022-07-30T14:56:28Z</time>
      </trkpt>
      <trkpt lat="45.34582" lon="5.81684">
        <ele>917</ele>
        <time>2022-07-30T14:56:30Z</time>
      </trkpt>
      <trkpt lat="45.34582" lon="5.8167">
        <ele>916</ele>
        <time>2022-07-30T14:56:32Z</time>
      </trkpt>
      <trkpt lat="45.34585" lon="5.81662">
        <ele>916</ele>
        <time>2022-07-30T14:56:33Z</time>
      </trkpt>
      <trkpt lat="45.34586" lon="5.81645">
        <ele>915</ele>
        <time>2022-07-30T14:56:35Z</time>
      </trkpt>
      <trkpt lat="45.34586" lon="5.81636">
        <ele>915</ele>
        <time>2022-07-30T14:56:36Z</time>
      </trkpt>
      <trkpt lat="45.3458" lon="5.8163">
        <ele>914</ele>
        <time>2022-07-30T14:56:37Z</time>
      </trkpt>
      <trkpt lat="45.34575" lon="5.81626">
        <ele>913</ele>
        <time>2022-07-30T14:56:38Z</time>
      </trkpt>
      <trkpt lat="45.34443" lon="5.81598">
        <ele>906</ele>
        <time>2022-07-30T14:56:53Z</time>
      </trkpt>
      <trkpt lat="45.3442" lon="5.8158">
        <ele>905</ele>
        <time>2022-07-30T14:56:56Z</time>
      </trkpt>
      <trkpt lat="45.34413" lon="5.81573">
        <ele>905</ele>
        <time>2022-07-30T14:56:57Z</time>
      </trkpt>
      <trkpt lat="45.34406" lon="5.81563">
        <ele>904</ele>
        <time>2022-07-30T14:56:58Z</time>
      </trkpt>
      <trkpt lat="45.34346" lon="5.81495">
        <ele>899</ele>
        <time>2022-07-30T14:57:10Z</time>
      </trkpt>
      <trkpt lat="45.34341" lon="5.81474">
        <ele>897</ele>
        <time>2022-07-30T14:57:15Z</time>
      </trkpt>
      <trkpt lat="45.34361" lon="5.81455">
        <ele>897</ele>
        <time>2022-07-30T14:57:41Z</time>
      </trkpt>
      <trkpt lat="45.3436" lon="5.81447">
        <ele>897</ele>
        <time>2022-07-30T14:57:44Z</time>
      </trkpt>
      <trkpt lat="45.3435" lon="5.81451">
        <ele>895</ele>
        <time>2022-07-30T15:00:20Z</time>
      </trkpt>
      <trkpt lat="45.34343" lon="5.81454">
        <ele>895</ele>
        <time>2022-07-30T15:00:25Z</time>
      </trkpt>
      <trkpt lat="45.34341" lon="5.81462">
        <ele>895</ele>
        <time>2022-07-30T15:00:31Z</time>
      </trkpt>
      <trkpt lat="45.34342" lon="5.81461">
        <ele>895</ele>
        <time>2022-07-30T15:00:50Z</time>
      </trkpt>
      <trkpt lat="45.3434" lon="5.81455">
        <ele>895</ele>
        <time>2022-07-30T15:00:53Z</time>
      </trkpt>
      <trkpt lat="45.3434" lon="5.81437">
        <ele>894</ele>
        <time>2022-07-30T15:01:02Z</time>
      </trkpt>
      <trkpt lat="45.3434" lon="5.8143">
        <ele>894</ele>
        <time>2022-07-30T15:01:06Z</time>
      </trkpt>
      <trkpt lat="45.34336" lon="5.81425">
        <ele>894</ele>
        <time>2022-07-30T15:01:09Z</time>
      </trkpt>
      <trkpt lat="45.3433" lon="5.81425">
        <ele>894</ele>
        <time>2022-07-30T15:01:12Z</time>
      </trkpt>
      <trkpt lat="45.34325" lon="5.81422">
        <ele>894</ele>
        <time>2022-07-30T15:01:15Z</time>
      </trkpt>
      <trkpt lat="45.34321" lon="5.81425">
        <ele>893</ele>
        <time>2022-07-30T15:01:18Z</time>
      </trkpt>
      <trkpt lat="45.34315" lon="5.81429">
        <ele>893</ele>
        <time>2022-07-30T15:01:21Z</time>
      </trkpt>
      <trkpt lat="45.34308" lon="5.81439">
        <ele>893</ele>
        <time>2022-07-30T15:01:28Z</time>
      </trkpt>
      <trkpt lat="45.34304" lon="5.81441">
        <ele>893</ele>
        <time>2022-07-30T15:01:31Z</time>
      </trkpt>
      <trkpt lat="45.343" lon="5.81445">
        <ele>893</ele>
        <time>2022-07-30T15:01:35Z</time>
      </trkpt>
      <trkpt lat="45.34297" lon="5.81449">
        <ele>893</ele>
        <time>2022-07-30T15:01:38Z</time>
      </trkpt>
      <trkpt lat="45.34292" lon="5.81448">
        <ele>893</ele>
        <time>2022-07-30T15:01:42Z</time>
      </trkpt>
      <trkpt lat="45.34287" lon="5.8145">
        <ele>893</ele>
        <time>2022-07-30T15:01:46Z</time>
      </trkpt>
      <trkpt lat="45.34279" lon="5.81457">
        <ele>893</ele>
        <time>2022-07-30T15:01:53Z</time>
      </trkpt>
      <trkpt lat="45.3429" lon="5.81458">
        <ele>889</ele>
        <time>2022-07-30T15:09:31Z</time>
      </trkpt>
      <trkpt lat="45.34294" lon="5.81457">
        <ele>889</ele>
        <time>2022-07-30T15:09:35Z</time>
      </trkpt>
      <trkpt lat="45.34298" lon="5.81453">
        <ele>889</ele>
        <time>2022-07-30T15:09:38Z</time>
      </trkpt>
      <trkpt lat="45.34305" lon="5.81451">
        <ele>889</ele>
        <time>2022-07-30T15:09:45Z</time>
      </trkpt>
      <trkpt lat="45.34307" lon="5.81446">
        <ele>890</ele>
        <time>2022-07-30T15:09:48Z</time>
      </trkpt>
      <trkpt lat="45.34307" lon="5.8144">
        <ele>889</ele>
        <time>2022-07-30T15:09:51Z</time>
      </trkpt>
      <trkpt lat="45.3431" lon="5.81435">
        <ele>889</ele>
        <time>2022-07-30T15:09:54Z</time>
      </trkpt>
      <trkpt lat="45.34314" lon="5.81432">
        <ele>889</ele>
        <time>2022-07-30T15:09:57Z</time>
      </trkpt>
      <trkpt lat="45.34318" lon="5.81429">
        <ele>889</ele>
        <time>2022-07-30T15:10:01Z</time>
      </trkpt>
      <trkpt lat="45.34327" lon="5.81427">
        <ele>889</ele>
        <time>2022-07-30T15:10:09Z</time>
      </trkpt>
      <trkpt lat="45.34332" lon="5.81428">
        <ele>890</ele>
        <time>2022-07-30T15:10:13Z</time>
      </trkpt>
      <trkpt lat="45.34336" lon="5.81433">
        <ele>890</ele>
        <time>2022-07-30T15:10:18Z</time>
      </trkpt>
      <trkpt lat="45.34337" lon="5.81456">
        <ele>890</ele>
        <time>2022-07-30T15:10:32Z</time>
      </trkpt>
      <trkpt lat="45.3434" lon="5.81464">
        <ele>890</ele>
        <time>2022-07-30T15:10:38Z</time>
      </trkpt>
      <trkpt lat="45.34345" lon="5.81467">
        <ele>890</ele>
        <time>2022-07-30T15:10:41Z</time>
      </trkpt>
    </trkseg>
  </trk>
  <rte>
    <name><![CDATA[4 avr. 2019 à 23:11:12]]></name>
    <cmt><![CDATA[4 avr. 2019 à 23:11:12]]></cmt>
    <desc><![CDATA[{DC1}Heure de fin	: 
Durée totale	: 0h00:00
Moyenne globale	: -
Pente moyenne	: 0.00 %
Aire incluse	: 7.4932 ha
Détails par segments
distance  | durée    | vit.moy. | vit.max. | déniv. + | déniv -
   km     | hh:mn:ss |   km/h   |   km/h   |    m     |    m
     0.81 | 00:00:00 |      0.0 |      0.0 |        0 |        0{DC2}]]></desc>
      <rtept lat="45.60077" lon="6.18221">
        <ele>1608.6</ele>
      </rtept>
      <rtept lat="45.59468" lon="6.1822">
        <ele>1760.9</ele>
      </rtept>
      <rtept lat="45.59468" lon="6.1822">
        <ele>1760.9</ele>
      </rtept>
    </rte>
  <rte>
    <name><![CDATA[10 févr. 2019 à 15:16:12]]></name>
    <cmt><![CDATA[10 févr. 2019 à 15:16:12]]></cmt>
    <desc><![CDATA[{DC1}Heure de fin	: 00:09:21
Durée totale	: -17690439h43:48
Moyenne globale	: -
Pente moyenne	: 7.00 %
Aire incluse	: 221.0936 ha
Détails par segments
distance  | durée    | vit.moy. | vit.max. | déniv. + | déniv -
   km     | hh:mn:ss |   km/h   |   km/h   |    m     |    m
     7.48 | 00:00:00 |      0.0 |      0.0 |        0 |        0{DC2}]]></desc>
      <rtept lat="45.55203" lon="5.93805">
        <ele>376</ele>
      </rtept>
      <rtept lat="45.55177" lon="5.93873">
        <ele>369</ele>
      </rtept>
      <rtept lat="45.55176" lon="5.93942">
        <ele>367</ele>
      </rtept>
      <rtept lat="45.55105" lon="5.93942">
        <ele>367</ele>
      </rtept>
      <rtept lat="45.54993" lon="5.93908">
        <ele>371</ele>
      </rtept>
      <rtept lat="45.54929" lon="5.94099">
        <ele>370</ele>
      </rtept>
      <rtept lat="45.54908" lon="5.94204">
        <ele>367</ele>
      </rtept>
      <rtept lat="45.54991" lon="5.94287">
        <ele>365</ele>
      </rtept>
      <rtept lat="45.5506" lon="5.94384">
        <ele>361</ele>
      </rtept>
      <rtept lat="45.55147" lon="5.94384">
        <ele>357</ele>
      </rtept>
      <rtept lat="45.55129" lon="5.94607">
        <ele>358</ele>
      </rtept>
      <rtept lat="45.55029" lon="5.94809">
        <ele>355</ele>
      </rtept>
      <rtept lat="45.54884" lon="5.94886">
        <ele>346</ele>
      </rtept>
      <rtept lat="45.5477" lon="5.94931">
        <ele>342</ele>
      </rtept>
      <rtept lat="45.5468" lon="5.95004">
        <ele>339</ele>
      </rtept>
      <rtept lat="45.54596" lon="5.95133">
        <ele>340</ele>
      </rtept>
      <rtept lat="45.54446" lon="5.95195">
        <ele>343</ele>
      </rtept>
      <rtept lat="45.543" lon="5.95262">
        <ele>344</ele>
      </rtept>
      <rtept lat="45.54156" lon="5.95212">
        <ele>337</ele>
      </rtept>
      <rtept lat="45.54041" lon="5.95204">
        <ele>338</ele>
      </rtept>
      <rtept lat="45.53917" lon="5.95141">
        <ele>343</ele>
      </rtept>
      <rtept lat="45.53844" lon="5.95135">
        <ele>347</ele>
      </rtept>
      <rtept lat="45.53765" lon="5.9503">
        <ele>349</ele>
      </rtept>
      <rtept lat="45.5381" lon="5.94993">
        <ele>352</ele>
      </rtept>
      <rtept lat="45.53781" lon="5.94901">
        <ele>358</ele>
      </rtept>
      <rtept lat="45.53711" lon="5.94845">
        <ele>365</ele>
      </rtept>
      <rtept lat="45.53702" lon="5.94764">
        <ele>369</ele>
      </rtept>
      <rtept lat="45.53817" lon="5.94807">
        <ele>376</ele>
      </rtept>
      <rtept lat="45.53865" lon="5.94633">
        <ele>389</ele>
      </rtept>
      <rtept lat="45.53778" lon="5.94491">
        <ele>408</ele>
      </rtept>
      <rtept lat="45.53757" lon="5.94371">
        <ele>425</ele>
      </rtept>
      <rtept lat="45.53775" lon="5.94279">
        <ele>434</ele>
      </rtept>
      <rtept lat="45.53726" lon="5.94227">
        <ele>442</ele>
      </rtept>
      <rtept lat="45.53572" lon="5.94146">
        <ele>468</ele>
      </rtept>
      <rtept lat="45.53664" lon="5.94039">
        <ele>483</ele>
      </rtept>
      <rtept lat="45.53532" lon="5.93983">
        <ele>505</ele>
      </rtept>
      <rtept lat="45.53416" lon="5.93985">
        <ele>516</ele>
      </rtept>
      <rtept lat="45.5355" lon="5.93869">
        <ele>532</ele>
      </rtept>
      <rtept lat="45.5359" lon="5.93845">
        <ele>537</ele>
      </rtept>
      <rtept lat="45.5355" lon="5.93802">
        <ele>544</ele>
      </rtept>
      <rtept lat="45.53724" lon="5.93554">
        <ele>587</ele>
      </rtept>
      <rtept lat="45.53691" lon="5.93339">
        <ele>592</ele>
      </rtept>
      <rtept lat="45.5376" lon="5.93178">
        <ele>575</ele>
      </rtept>
      <rtept lat="45.53843" lon="5.93069">
        <ele>555</ele>
      </rtept>
      <rtept lat="45.53939" lon="5.93157">
        <ele>541</ele>
      </rtept>
      <rtept lat="45.54068" lon="5.93234">
        <ele>522</ele>
      </rtept>
      <rtept lat="45.54219" lon="5.93247">
        <ele>514</ele>
      </rtept>
      <rtept lat="45.54355" lon="5.93232">
        <ele>512</ele>
      </rtept>
      <rtept lat="45.54489" lon="5.9326">
        <ele>508</ele>
      </rtept>
      <rtept lat="45.54636" lon="5.93249">
        <ele>510</ele>
      </rtept>
      <rtept lat="45.54758" lon="5.93249">
        <ele>510</ele>
      </rtept>
      <rtept lat="45.54818" lon="5.93298">
        <ele>507</ele>
      </rtept>
      <rtept lat="45.54796" lon="5.93418">
        <ele>496</ele>
      </rtept>
      <rtept lat="45.5491" lon="5.93433">
        <ele>483</ele>
      </rtept>
      <rtept lat="45.55126" lon="5.9341">
        <ele>463</ele>
      </rtept>
      <rtept lat="45.55256" lon="5.93453">
        <ele>444</ele>
      </rtept>
      <rtept lat="45.55329" lon="5.93558">
        <ele>430</ele>
      </rtept>
      <rtept lat="45.55222" lon="5.93642">
        <ele>415</ele>
      </rtept>
      <rtept lat="45.55195" lon="5.93811">
        <ele>375</ele>
      </rtept>
    </rte>
  <rte>
    <name><![CDATA[10 févr. 2019 à 15:15:48]]></name>
    <cmt><![CDATA[10 févr. 2019 à 15:15:48]]></cmt>
    <desc><![CDATA[{DC1}Heure de fin	: 00:09:21
Durée totale	: -17690439h44:12
Moyenne globale	: -
Pente moyenne	: nan %
Aire incluse	: 0.0000 ha
Détails par segments
distance  | durée    | vit.moy. | vit.max. | déniv. + | déniv -
   km     | hh:mn:ss |   km/h   |   km/h   |    m     |    m
     0.00 | 00:00:00 |      0.0 |      0.0 |        0 |        0{DC2}]]></desc>
      <rtept lat="45.5175" lon="5.93483">
        <ele>732.3</ele>
      </rtept>
    </rte>
  <rte>
    <name><![CDATA[10 févr. 2019 à 15:06:08]]></name>
    <cmt><![CDATA[10 févr. 2019 à 15:06:08]]></cmt>
    <desc><![CDATA[{DC1}Heure de fin	: 
Durée totale	: 0h00:00
Moyenne globale	: -
Pente moyenne	: 8.03 %
Aire incluse	: 204.0794 ha
Détails par segments
distance  | durée    | vit.moy. | vit.max. | déniv. + | déniv -
   km     | hh:mn:ss |   km/h   |   km/h   |    m     |    m
    12.88 | 00:00:00 |      0.0 |      0.0 |        0 |        0{DC2}]]></desc>
      <rtept lat="45.5509" lon="5.9394">
        <ele>368</ele>
      </rtept>
      <rtept lat="45.55217" lon="5.93791">
        <ele>377</ele>
      </rtept>
    </rte>
  <rte>
    <name><![CDATA[10 févr. 2019 à 14:22:06]]></name>
    <cmt><![CDATA[10 févr. 2019 à 14:22:06]]></cmt>
    <desc><![CDATA[{DC1}Heure de fin	: 00:09:21
Durée totale	: -17690438h37:54
Moyenne globale	: -
Pente moyenne	: 5.62 %
Aire incluse	: 5.7967 ha
Détails par segments
distance  | durée    | vit.moy. | vit.max. | déniv. + | déniv -
   km     | hh:mn:ss |   km/h   |   km/h   |    m     |    m
     3.30 | 00:00:00 |      0.0 |      0.0 |        0 |        0{DC2}]]></desc>
      <rtept lat="45.55169" lon="5.93089">
        <ele>415</ele>
      </rtept>
      <rtept lat="45.5518" lon="5.93905">
        <ele>366</ele>
      </rtept>
    </rte>
  <rte>
    <name><![CDATA[10 févr. 2019 à 09:50:45]]></name>
    <cmt><![CDATA[10 févr. 2019 à 09:50:45]]></cmt>
    <desc><![CDATA[{DC1}Heure de fin	: 00:09:21
Durée totale	: -17690433h09:14
Moyenne globale	: -
Pente moyenne	: 0.00 %
Aire incluse	: 50.7119 ha
Détails par segments
distance  | durée    | vit.moy. | vit.max. | déniv. + | déniv -
   km     | hh:mn:ss |   km/h   |   km/h   |    m     |    m
     4.33 | 00:00:00 |      0.0 |      0.0 |        0 |        0{DC2}]]></desc>
      <rtept lat="45.5503" lon="5.93918">
        <ele>373.6</ele>
      </rtept>
      <rtept lat="45.55191" lon="5.93893">
        <ele>366.7</ele>
      </rtept>
    </rte>
  <rte>
    <name><![CDATA[10 févr. 2019 à 09:07:08]]></name>
    <cmt><![CDATA[10 févr. 2019 à 09:07:08]]></cmt>
    <desc><![CDATA[{DC1}Heure de fin	: 00:09:21
Durée totale	: -17690433h52:52
Moyenne globale	: -
Pente moyenne	: nan %
Aire incluse	: 0.0000 ha
Détails par segments
distance  | durée    | vit.moy. | vit.max. | déniv. + | déniv -
   km     | hh:mn:ss |   km/h   |   km/h   |    m     |    m
     0.00 | 00:00:00 |      0.0 |      0.0 |        0 |        0{DC2}]]></desc>
      <rtept lat="45.55102" lon="5.93919">
        <ele>370.1</ele>
      </rtept>
    </rte>
  <rte>
    <name><![CDATA[10 févr. 2019 à 09:02:25]]></name>
    <cmt><![CDATA[10 févr. 2019 à 09:02:25]]></cmt>
    <desc><![CDATA[{DC1}Heure de fin	: 00:09:21
Durée totale	: -17690433h57:35
Moyenne globale	: -
Pente moyenne	: nan %
Aire incluse	: 0.0000 ha
Détails par segments
distance  | durée    | vit.moy. | vit.max. | déniv. + | déniv -
   km     | hh:mn:ss |   km/h   |   km/h   |    m     |    m
     0.00 | 00:00:00 |      0.0 |      0.0 |        0 |        0{DC2}]]></desc>
      <rtept lat="45.55207" lon="5.93813">
        <ele>375.2</ele>
      </rtept>
    </rte>
  <rte>
    <name><![CDATA[10 févr. 2019 à 09:00:27]]></name>
    <cmt><![CDATA[10 févr. 2019 à 09:00:27]]></cmt>
    <desc><![CDATA[{DC1}Heure de fin	: 00:09:21
Durée totale	: -17690433h59:32
Moyenne globale	: -
Pente moyenne	: nan %
Aire incluse	: 0.0000 ha
Détails par segments
distance  | durée    | vit.moy. | vit.max. | déniv. + | déniv -
   km     | hh:mn:ss |   km/h   |   km/h   |    m     |    m
     0.00 | 00:00:00 |      0.0 |      0.0 |        0 |        0{DC2}]]></desc>
      <rtept lat="45.55244" lon="5.93858">
        <ele>366.6</ele>
      </rtept>
    </rte>
</gpx>